<?xml version="1.0" encoding="UTF-8" standalone="no" ?>
<gpx xmlns="http://www.topografix.com/GPX/1/1" xmlns:xsi="http://www.w3.org/2001/XMLSchema-instance" xsi:schemaLocation="http://www.topografix.com/GPX/1/1 http://www.topografix.com/GPX/1/1/gpx.xsd" version="1.1" creator="VisuGPX - https://www.visugpx.com">
  <metadata>
    <name>Tour de la pointe du raz</name>
    <desc><![CDATA[Belle ballade par le gr 34 puis retour par les terres ( balsage jaune )]]></desc>
  </metadata>
  <trk>
    <name><![CDATA[2016-05-16 14:25:24]]></name>
    <trkseg>
      <trkpt lat="48.04732" lon="-4.70463">
        <ele>-42.16</ele>
        <time>2016-05-16T08:43:25Z</time>
      </trkpt>
      <trkpt lat="48.04729" lon="-4.70468">
        <ele>-42.16</ele>
        <time>2016-05-16T08:43:28Z</time>
      </trkpt>
      <trkpt lat="48.04727" lon="-4.70487">
        <ele>-42.64</ele>
        <time>2016-05-16T08:43:44Z</time>
      </trkpt>
      <trkpt lat="48.04725" lon="-4.705">
        <ele>-38.8</ele>
        <time>2016-05-16T08:43:55Z</time>
      </trkpt>
      <trkpt lat="48.04722" lon="-4.70501">
        <ele>-0.82</ele>
        <time>2016-05-16T08:43:57Z</time>
      </trkpt>
      <trkpt lat="48.0472" lon="-4.70502">
        <ele>-5.15</ele>
        <time>2016-05-16T08:44:01Z</time>
      </trkpt>
      <trkpt lat="48.0472" lon="-4.70503">
        <ele>-5.15</ele>
        <time>2016-05-16T08:44:02Z</time>
      </trkpt>
      <trkpt lat="48.04715" lon="-4.70523">
        <ele>-4.67</ele>
        <time>2016-05-16T08:44:15Z</time>
      </trkpt>
      <trkpt lat="48.04723" lon="-4.70551">
        <ele>-4.19</ele>
        <time>2016-05-16T08:44:31Z</time>
      </trkpt>
      <trkpt lat="48.04724" lon="-4.70566">
        <ele>-3.71</ele>
        <time>2016-05-16T08:44:39Z</time>
      </trkpt>
      <trkpt lat="48.04721" lon="-4.70582">
        <ele>-5.15</ele>
        <time>2016-05-16T08:44:47Z</time>
      </trkpt>
      <trkpt lat="48.04717" lon="-4.70587">
        <ele>-6.59</ele>
        <time>2016-05-16T08:44:52Z</time>
      </trkpt>
      <trkpt lat="48.04714" lon="-4.70591">
        <ele>-6.59</ele>
        <time>2016-05-16T08:44:57Z</time>
      </trkpt>
      <trkpt lat="48.0471" lon="-4.70597">
        <ele>-7.07</ele>
        <time>2016-05-16T08:45:04Z</time>
      </trkpt>
      <trkpt lat="48.04693" lon="-4.7062">
        <ele>-8.51</ele>
        <time>2016-05-16T08:45:22Z</time>
      </trkpt>
      <trkpt lat="48.0467" lon="-4.70631">
        <ele>-8.51</ele>
        <time>2016-05-16T08:45:40Z</time>
      </trkpt>
      <trkpt lat="48.04655" lon="-4.70634">
        <ele>-8.03</ele>
        <time>2016-05-16T08:45:57Z</time>
      </trkpt>
      <trkpt lat="48.0464" lon="-4.70636">
        <ele>-8.03</ele>
        <time>2016-05-16T08:46:11Z</time>
      </trkpt>
      <trkpt lat="48.04617" lon="-4.70645">
        <ele>-8.03</ele>
        <time>2016-05-16T08:46:30Z</time>
      </trkpt>
      <trkpt lat="48.04598" lon="-4.70653">
        <ele>-8.03</ele>
        <time>2016-05-16T08:46:46Z</time>
      </trkpt>
      <trkpt lat="48.04577" lon="-4.70659">
        <ele>-8.03</ele>
        <time>2016-05-16T08:47:03Z</time>
      </trkpt>
      <trkpt lat="48.04554" lon="-4.70667">
        <ele>-8.03</ele>
        <time>2016-05-16T08:47:22Z</time>
      </trkpt>
      <trkpt lat="48.04528" lon="-4.70672">
        <ele>-7.55</ele>
        <time>2016-05-16T08:47:44Z</time>
      </trkpt>
      <trkpt lat="48.04521" lon="-4.70676">
        <ele>-7.55</ele>
        <time>2016-05-16T08:47:51Z</time>
      </trkpt>
      <trkpt lat="48.0451" lon="-4.70671">
        <ele>-6.11</ele>
        <time>2016-05-16T08:48:05Z</time>
      </trkpt>
      <trkpt lat="48.04502" lon="-4.70661">
        <ele>-5.15</ele>
        <time>2016-05-16T08:48:17Z</time>
      </trkpt>
      <trkpt lat="48.04502" lon="-4.70658">
        <ele>-5.15</ele>
        <time>2016-05-16T08:48:19Z</time>
      </trkpt>
      <trkpt lat="48.04505" lon="-4.70655">
        <ele>-5.15</ele>
        <time>2016-05-16T08:48:22Z</time>
      </trkpt>
      <trkpt lat="48.04518" lon="-4.70643">
        <ele>-4.67</ele>
        <time>2016-05-16T08:48:38Z</time>
      </trkpt>
      <trkpt lat="48.04522" lon="-4.70628">
        <ele>-2.75</ele>
        <time>2016-05-16T08:48:52Z</time>
      </trkpt>
      <trkpt lat="48.04517" lon="-4.70623">
        <ele>-1.3</ele>
        <time>2016-05-16T08:49:00Z</time>
      </trkpt>
      <trkpt lat="48.04514" lon="-4.70622">
        <ele>-1.3</ele>
        <time>2016-05-16T08:49:03Z</time>
      </trkpt>
      <trkpt lat="48.04511" lon="-4.70617">
        <ele>-1.3</ele>
        <time>2016-05-16T08:49:07Z</time>
      </trkpt>
      <trkpt lat="48.04506" lon="-4.70607">
        <ele>-1.3</ele>
        <time>2016-05-16T08:49:16Z</time>
      </trkpt>
      <trkpt lat="48.04499" lon="-4.70614">
        <ele>-1.3</ele>
        <time>2016-05-16T08:49:25Z</time>
      </trkpt>
      <trkpt lat="48.04492" lon="-4.70636">
        <ele>0.62</ele>
        <time>2016-05-16T08:49:42Z</time>
      </trkpt>
      <trkpt lat="48.04492" lon="-4.70637">
        <ele>0.62</ele>
        <time>2016-05-16T08:49:43Z</time>
      </trkpt>
      <trkpt lat="48.04487" lon="-4.70639">
        <ele>1.1</ele>
        <time>2016-05-16T08:49:48Z</time>
      </trkpt>
      <trkpt lat="48.04483" lon="-4.7064">
        <ele>2.06</ele>
        <time>2016-05-16T08:49:52Z</time>
      </trkpt>
      <trkpt lat="48.04483" lon="-4.70643">
        <ele>2.06</ele>
        <time>2016-05-16T08:49:54Z</time>
      </trkpt>
      <trkpt lat="48.04473" lon="-4.70657">
        <ele>4.94</ele>
        <time>2016-05-16T08:50:09Z</time>
      </trkpt>
      <trkpt lat="48.04468" lon="-4.70668">
        <ele>8.31</ele>
        <time>2016-05-16T08:50:21Z</time>
      </trkpt>
      <trkpt lat="48.04462" lon="-4.70673">
        <ele>11.19</ele>
        <time>2016-05-16T08:50:34Z</time>
      </trkpt>
      <trkpt lat="48.04454" lon="-4.70682">
        <ele>14.56</ele>
        <time>2016-05-16T08:50:47Z</time>
      </trkpt>
      <trkpt lat="48.04447" lon="-4.7069">
        <ele>17.44</ele>
        <time>2016-05-16T08:50:59Z</time>
      </trkpt>
      <trkpt lat="48.04439" lon="-4.70694">
        <ele>20.32</ele>
        <time>2016-05-16T08:51:13Z</time>
      </trkpt>
      <trkpt lat="48.04434" lon="-4.7069">
        <ele>22.73</ele>
        <time>2016-05-16T08:51:25Z</time>
      </trkpt>
      <trkpt lat="48.04429" lon="-4.70692">
        <ele>24.17</ele>
        <time>2016-05-16T08:51:39Z</time>
      </trkpt>
      <trkpt lat="48.04422" lon="-4.70703">
        <ele>27.53</ele>
        <time>2016-05-16T08:51:53Z</time>
      </trkpt>
      <trkpt lat="48.04413" lon="-4.70715">
        <ele>29.46</ele>
        <time>2016-05-16T08:52:08Z</time>
      </trkpt>
      <trkpt lat="48.04403" lon="-4.70723">
        <ele>31.86</ele>
        <time>2016-05-16T08:52:22Z</time>
      </trkpt>
      <trkpt lat="48.04395" lon="-4.70723">
        <ele>34.26</ele>
        <time>2016-05-16T08:52:37Z</time>
      </trkpt>
      <trkpt lat="48.04391" lon="-4.7072">
        <ele>35.23</ele>
        <time>2016-05-16T08:52:52Z</time>
      </trkpt>
      <trkpt lat="48.04392" lon="-4.70721">
        <ele>35.23</ele>
        <time>2016-05-16T08:53:15Z</time>
      </trkpt>
      <trkpt lat="48.04391" lon="-4.70721">
        <ele>35.71</ele>
        <time>2016-05-16T08:53:28Z</time>
      </trkpt>
      <trkpt lat="48.04389" lon="-4.70723">
        <ele>35.71</ele>
        <time>2016-05-16T08:53:44Z</time>
      </trkpt>
      <trkpt lat="48.04386" lon="-4.70724">
        <ele>36.19</ele>
        <time>2016-05-16T08:54:04Z</time>
      </trkpt>
      <trkpt lat="48.04371" lon="-4.70742">
        <ele>37.15</ele>
        <time>2016-05-16T08:54:21Z</time>
      </trkpt>
      <trkpt lat="48.04359" lon="-4.70754">
        <ele>39.07</ele>
        <time>2016-05-16T08:54:35Z</time>
      </trkpt>
      <trkpt lat="48.04356" lon="-4.7076">
        <ele>39.07</ele>
        <time>2016-05-16T08:54:39Z</time>
      </trkpt>
      <trkpt lat="48.04349" lon="-4.70789">
        <ele>37.63</ele>
        <time>2016-05-16T08:54:57Z</time>
      </trkpt>
      <trkpt lat="48.0434" lon="-4.70819">
        <ele>37.63</ele>
        <time>2016-05-16T08:55:15Z</time>
      </trkpt>
      <trkpt lat="48.04336" lon="-4.70835">
        <ele>39.07</ele>
        <time>2016-05-16T08:55:25Z</time>
      </trkpt>
      <trkpt lat="48.04327" lon="-4.70862">
        <ele>39.55</ele>
        <time>2016-05-16T08:55:41Z</time>
      </trkpt>
      <trkpt lat="48.0432" lon="-4.70882">
        <ele>42.92</ele>
        <time>2016-05-16T08:55:54Z</time>
      </trkpt>
      <trkpt lat="48.04314" lon="-4.70913">
        <ele>43.4</ele>
        <time>2016-05-16T08:56:11Z</time>
      </trkpt>
      <trkpt lat="48.04305" lon="-4.70935">
        <ele>44.36</ele>
        <time>2016-05-16T08:56:25Z</time>
      </trkpt>
      <trkpt lat="48.04303" lon="-4.70941">
        <ele>44.84</ele>
        <time>2016-05-16T08:56:29Z</time>
      </trkpt>
      <trkpt lat="48.043" lon="-4.70946">
        <ele>45.32</ele>
        <time>2016-05-16T08:56:33Z</time>
      </trkpt>
      <trkpt lat="48.04281" lon="-4.70955">
        <ele>48.2</ele>
        <time>2016-05-16T08:56:53Z</time>
      </trkpt>
      <trkpt lat="48.04277" lon="-4.70957">
        <ele>48.2</ele>
        <time>2016-05-16T08:56:59Z</time>
      </trkpt>
      <trkpt lat="48.04275" lon="-4.70961">
        <ele>48.68</ele>
        <time>2016-05-16T08:57:03Z</time>
      </trkpt>
      <trkpt lat="48.04273" lon="-4.70975">
        <ele>47.24</ele>
        <time>2016-05-16T08:57:12Z</time>
      </trkpt>
      <trkpt lat="48.04274" lon="-4.70986">
        <ele>46.76</ele>
        <time>2016-05-16T08:57:20Z</time>
      </trkpt>
      <trkpt lat="48.04275" lon="-4.71001">
        <ele>43.88</ele>
        <time>2016-05-16T08:57:35Z</time>
      </trkpt>
      <trkpt lat="48.04276" lon="-4.71006">
        <ele>42.44</ele>
        <time>2016-05-16T08:57:39Z</time>
      </trkpt>
      <trkpt lat="48.04275" lon="-4.71012">
        <ele>41.47</ele>
        <time>2016-05-16T08:57:45Z</time>
      </trkpt>
      <trkpt lat="48.04276" lon="-4.71021">
        <ele>39.07</ele>
        <time>2016-05-16T08:57:52Z</time>
      </trkpt>
      <trkpt lat="48.04272" lon="-4.71036">
        <ele>36.67</ele>
        <time>2016-05-16T08:58:04Z</time>
      </trkpt>
      <trkpt lat="48.04263" lon="-4.71063">
        <ele>34.74</ele>
        <time>2016-05-16T08:58:21Z</time>
      </trkpt>
      <trkpt lat="48.0426" lon="-4.71086">
        <ele>33.3</ele>
        <time>2016-05-16T08:58:36Z</time>
      </trkpt>
      <trkpt lat="48.04251" lon="-4.71113">
        <ele>32.34</ele>
        <time>2016-05-16T08:58:53Z</time>
      </trkpt>
      <trkpt lat="48.04232" lon="-4.71131">
        <ele>31.86</ele>
        <time>2016-05-16T08:59:11Z</time>
      </trkpt>
      <trkpt lat="48.04213" lon="-4.7115">
        <ele>33.3</ele>
        <time>2016-05-16T08:59:29Z</time>
      </trkpt>
      <trkpt lat="48.04203" lon="-4.71154">
        <ele>35.23</ele>
        <time>2016-05-16T08:59:39Z</time>
      </trkpt>
      <trkpt lat="48.042" lon="-4.71157">
        <ele>35.71</ele>
        <time>2016-05-16T08:59:43Z</time>
      </trkpt>
      <trkpt lat="48.04197" lon="-4.71158">
        <ele>36.67</ele>
        <time>2016-05-16T08:59:47Z</time>
      </trkpt>
      <trkpt lat="48.04184" lon="-4.7117">
        <ele>39.07</ele>
        <time>2016-05-16T09:00:02Z</time>
      </trkpt>
      <trkpt lat="48.04177" lon="-4.71183">
        <ele>39.55</ele>
        <time>2016-05-16T09:00:14Z</time>
      </trkpt>
      <trkpt lat="48.04177" lon="-4.71195">
        <ele>37.63</ele>
        <time>2016-05-16T09:00:23Z</time>
      </trkpt>
      <trkpt lat="48.04175" lon="-4.7121">
        <ele>35.23</ele>
        <time>2016-05-16T09:00:34Z</time>
      </trkpt>
      <trkpt lat="48.04172" lon="-4.71214">
        <ele>34.74</ele>
        <time>2016-05-16T09:00:38Z</time>
      </trkpt>
      <trkpt lat="48.04168" lon="-4.71232">
        <ele>32.82</ele>
        <time>2016-05-16T09:00:51Z</time>
      </trkpt>
      <trkpt lat="48.04154" lon="-4.71252">
        <ele>32.82</ele>
        <time>2016-05-16T09:01:07Z</time>
      </trkpt>
      <trkpt lat="48.04142" lon="-4.71269">
        <ele>32.34</ele>
        <time>2016-05-16T09:01:21Z</time>
      </trkpt>
      <trkpt lat="48.04136" lon="-4.71277">
        <ele>32.34</ele>
        <time>2016-05-16T09:01:28Z</time>
      </trkpt>
      <trkpt lat="48.04134" lon="-4.7129">
        <ele>30.9</ele>
        <time>2016-05-16T09:01:36Z</time>
      </trkpt>
      <trkpt lat="48.04132" lon="-4.71295">
        <ele>30.42</ele>
        <time>2016-05-16T09:01:40Z</time>
      </trkpt>
      <trkpt lat="48.04131" lon="-4.71304">
        <ele>29.94</ele>
        <time>2016-05-16T09:01:45Z</time>
      </trkpt>
      <trkpt lat="48.04131" lon="-4.7132">
        <ele>28.02</ele>
        <time>2016-05-16T09:01:55Z</time>
      </trkpt>
      <trkpt lat="48.04133" lon="-4.71332">
        <ele>26.57</ele>
        <time>2016-05-16T09:02:04Z</time>
      </trkpt>
      <trkpt lat="48.04131" lon="-4.71353">
        <ele>24.17</ele>
        <time>2016-05-16T09:02:17Z</time>
      </trkpt>
      <trkpt lat="48.04129" lon="-4.71374">
        <ele>23.69</ele>
        <time>2016-05-16T09:02:30Z</time>
      </trkpt>
      <trkpt lat="48.04127" lon="-4.71394">
        <ele>22.73</ele>
        <time>2016-05-16T09:02:42Z</time>
      </trkpt>
      <trkpt lat="48.04117" lon="-4.7142">
        <ele>22.25</ele>
        <time>2016-05-16T09:02:58Z</time>
      </trkpt>
      <trkpt lat="48.04116" lon="-4.71422">
        <ele>22.25</ele>
        <time>2016-05-16T09:03:00Z</time>
      </trkpt>
      <trkpt lat="48.04108" lon="-4.71452">
        <ele>22.25</ele>
        <time>2016-05-16T09:03:17Z</time>
      </trkpt>
      <trkpt lat="48.04112" lon="-4.71477">
        <ele>23.21</ele>
        <time>2016-05-16T09:03:31Z</time>
      </trkpt>
      <trkpt lat="48.04121" lon="-4.71497">
        <ele>24.65</ele>
        <time>2016-05-16T09:03:45Z</time>
      </trkpt>
      <trkpt lat="48.04126" lon="-4.71526">
        <ele>24.65</ele>
        <time>2016-05-16T09:04:02Z</time>
      </trkpt>
      <trkpt lat="48.04121" lon="-4.7155">
        <ele>27.53</ele>
        <time>2016-05-16T09:04:16Z</time>
      </trkpt>
      <trkpt lat="48.04115" lon="-4.71563">
        <ele>30.42</ele>
        <time>2016-05-16T09:04:27Z</time>
      </trkpt>
      <trkpt lat="48.04114" lon="-4.71568">
        <ele>30.9</ele>
        <time>2016-05-16T09:04:31Z</time>
      </trkpt>
      <trkpt lat="48.04114" lon="-4.71583">
        <ele>31.86</ele>
        <time>2016-05-16T09:04:41Z</time>
      </trkpt>
      <trkpt lat="48.04115" lon="-4.71598">
        <ele>32.82</ele>
        <time>2016-05-16T09:04:50Z</time>
      </trkpt>
      <trkpt lat="48.04114" lon="-4.71613">
        <ele>34.26</ele>
        <time>2016-05-16T09:05:04Z</time>
      </trkpt>
      <trkpt lat="48.04116" lon="-4.71618">
        <ele>34.26</ele>
        <time>2016-05-16T09:05:07Z</time>
      </trkpt>
      <trkpt lat="48.04116" lon="-4.71623">
        <ele>34.26</ele>
        <time>2016-05-16T09:05:11Z</time>
      </trkpt>
      <trkpt lat="48.04116" lon="-4.71635">
        <ele>35.71</ele>
        <time>2016-05-16T09:05:19Z</time>
      </trkpt>
      <trkpt lat="48.04115" lon="-4.71645">
        <ele>36.67</ele>
        <time>2016-05-16T09:05:26Z</time>
      </trkpt>
      <trkpt lat="48.04118" lon="-4.71668">
        <ele>36.19</ele>
        <time>2016-05-16T09:05:41Z</time>
      </trkpt>
      <trkpt lat="48.04118" lon="-4.7167">
        <ele>34.74</ele>
        <time>2016-05-16T09:05:43Z</time>
      </trkpt>
      <trkpt lat="48.04119" lon="-4.71672">
        <ele>34.74</ele>
        <time>2016-05-16T09:05:45Z</time>
      </trkpt>
      <trkpt lat="48.04123" lon="-4.71691">
        <ele>32.82</ele>
        <time>2016-05-16T09:06:00Z</time>
      </trkpt>
      <trkpt lat="48.04125" lon="-4.71697">
        <ele>31.38</ele>
        <time>2016-05-16T09:06:06Z</time>
      </trkpt>
      <trkpt lat="48.04131" lon="-4.71712">
        <ele>28.5</ele>
        <time>2016-05-16T09:06:20Z</time>
      </trkpt>
      <trkpt lat="48.04133" lon="-4.71715">
        <ele>28.5</ele>
        <time>2016-05-16T09:06:22Z</time>
      </trkpt>
      <trkpt lat="48.04138" lon="-4.71733">
        <ele>27.05</ele>
        <time>2016-05-16T09:06:33Z</time>
      </trkpt>
      <trkpt lat="48.04142" lon="-4.71755">
        <ele>26.57</ele>
        <time>2016-05-16T09:06:45Z</time>
      </trkpt>
      <trkpt lat="48.04148" lon="-4.71774">
        <ele>26.09</ele>
        <time>2016-05-16T09:06:57Z</time>
      </trkpt>
      <trkpt lat="48.04157" lon="-4.71792">
        <ele>25.13</ele>
        <time>2016-05-16T09:07:11Z</time>
      </trkpt>
      <trkpt lat="48.04168" lon="-4.71815">
        <ele>25.13</ele>
        <time>2016-05-16T09:07:27Z</time>
      </trkpt>
      <trkpt lat="48.0417" lon="-4.71819">
        <ele>24.65</ele>
        <time>2016-05-16T09:07:30Z</time>
      </trkpt>
      <trkpt lat="48.04179" lon="-4.71845">
        <ele>23.69</ele>
        <time>2016-05-16T09:07:46Z</time>
      </trkpt>
      <trkpt lat="48.04178" lon="-4.71877">
        <ele>23.69</ele>
        <time>2016-05-16T09:08:05Z</time>
      </trkpt>
      <trkpt lat="48.04174" lon="-4.719">
        <ele>26.09</ele>
        <time>2016-05-16T09:08:19Z</time>
      </trkpt>
      <trkpt lat="48.04173" lon="-4.71913">
        <ele>27.05</ele>
        <time>2016-05-16T09:08:28Z</time>
      </trkpt>
      <trkpt lat="48.04174" lon="-4.71927">
        <ele>29.46</ele>
        <time>2016-05-16T09:08:38Z</time>
      </trkpt>
      <trkpt lat="48.04175" lon="-4.71932">
        <ele>29.46</ele>
        <time>2016-05-16T09:08:42Z</time>
      </trkpt>
      <trkpt lat="48.04173" lon="-4.71954">
        <ele>29.46</ele>
        <time>2016-05-16T09:08:55Z</time>
      </trkpt>
      <trkpt lat="48.04156" lon="-4.71963">
        <ele>27.53</ele>
        <time>2016-05-16T09:09:11Z</time>
      </trkpt>
      <trkpt lat="48.04133" lon="-4.71967">
        <ele>27.53</ele>
        <time>2016-05-16T09:09:30Z</time>
      </trkpt>
      <trkpt lat="48.04117" lon="-4.71977">
        <ele>28.98</ele>
        <time>2016-05-16T09:09:44Z</time>
      </trkpt>
      <trkpt lat="48.041" lon="-4.71987">
        <ele>30.9</ele>
        <time>2016-05-16T09:10:00Z</time>
      </trkpt>
      <trkpt lat="48.04087" lon="-4.71996">
        <ele>30.9</ele>
        <time>2016-05-16T09:10:11Z</time>
      </trkpt>
      <trkpt lat="48.04076" lon="-4.71994">
        <ele>34.26</ele>
        <time>2016-05-16T09:10:25Z</time>
      </trkpt>
      <trkpt lat="48.0407" lon="-4.71991">
        <ele>37.63</ele>
        <time>2016-05-16T09:10:35Z</time>
      </trkpt>
      <trkpt lat="48.04063" lon="-4.71993">
        <ele>40.03</ele>
        <time>2016-05-16T09:10:48Z</time>
      </trkpt>
      <trkpt lat="48.04062" lon="-4.71994">
        <ele>40.03</ele>
        <time>2016-05-16T09:10:49Z</time>
      </trkpt>
      <trkpt lat="48.04054" lon="-4.71995">
        <ele>42.44</ele>
        <time>2016-05-16T09:11:03Z</time>
      </trkpt>
      <trkpt lat="48.04046" lon="-4.71999">
        <ele>43.88</ele>
        <time>2016-05-16T09:11:14Z</time>
      </trkpt>
      <trkpt lat="48.04036" lon="-4.72005">
        <ele>44.84</ele>
        <time>2016-05-16T09:11:27Z</time>
      </trkpt>
      <trkpt lat="48.04027" lon="-4.72014">
        <ele>44.84</ele>
        <time>2016-05-16T09:11:37Z</time>
      </trkpt>
      <trkpt lat="48.04025" lon="-4.72038">
        <ele>44.84</ele>
        <time>2016-05-16T09:11:53Z</time>
      </trkpt>
      <trkpt lat="48.04024" lon="-4.72046">
        <ele>44.84</ele>
        <time>2016-05-16T09:11:58Z</time>
      </trkpt>
      <trkpt lat="48.04025" lon="-4.72053">
        <ele>45.32</ele>
        <time>2016-05-16T09:12:02Z</time>
      </trkpt>
      <trkpt lat="48.04021" lon="-4.72074">
        <ele>47.72</ele>
        <time>2016-05-16T09:12:17Z</time>
      </trkpt>
      <trkpt lat="48.04017" lon="-4.72091">
        <ele>49.65</ele>
        <time>2016-05-16T09:12:30Z</time>
      </trkpt>
      <trkpt lat="48.04017" lon="-4.72094">
        <ele>50.13</ele>
        <time>2016-05-16T09:12:32Z</time>
      </trkpt>
      <trkpt lat="48.04019" lon="-4.72108">
        <ele>52.05</ele>
        <time>2016-05-16T09:12:45Z</time>
      </trkpt>
      <trkpt lat="48.0402" lon="-4.72109">
        <ele>52.53</ele>
        <time>2016-05-16T09:13:10Z</time>
      </trkpt>
      <trkpt lat="48.04021" lon="-4.72115">
        <ele>52.53</ele>
        <time>2016-05-16T09:13:15Z</time>
      </trkpt>
      <trkpt lat="48.04023" lon="-4.72122">
        <ele>52.53</ele>
        <time>2016-05-16T09:13:19Z</time>
      </trkpt>
      <trkpt lat="48.04024" lon="-4.72135">
        <ele>52.53</ele>
        <time>2016-05-16T09:13:27Z</time>
      </trkpt>
      <trkpt lat="48.04028" lon="-4.72162">
        <ele>51.09</ele>
        <time>2016-05-16T09:13:42Z</time>
      </trkpt>
      <trkpt lat="48.0404" lon="-4.72183">
        <ele>52.53</ele>
        <time>2016-05-16T09:14:00Z</time>
      </trkpt>
      <trkpt lat="48.04042" lon="-4.72185">
        <ele>52.53</ele>
        <time>2016-05-16T09:14:02Z</time>
      </trkpt>
      <trkpt lat="48.04044" lon="-4.7219">
        <ele>52.53</ele>
        <time>2016-05-16T09:14:05Z</time>
      </trkpt>
      <trkpt lat="48.04045" lon="-4.72192">
        <ele>52.53</ele>
        <time>2016-05-16T09:14:07Z</time>
      </trkpt>
      <trkpt lat="48.04047" lon="-4.72196">
        <ele>53.49</ele>
        <time>2016-05-16T09:14:12Z</time>
      </trkpt>
      <trkpt lat="48.04055" lon="-4.7221">
        <ele>53.97</ele>
        <time>2016-05-16T09:14:23Z</time>
      </trkpt>
      <trkpt lat="48.0406" lon="-4.72217">
        <ele>53.97</ele>
        <time>2016-05-16T09:14:35Z</time>
      </trkpt>
      <trkpt lat="48.04057" lon="-4.72218">
        <ele>53.97</ele>
        <time>2016-05-16T09:14:40Z</time>
      </trkpt>
      <trkpt lat="48.04056" lon="-4.72223">
        <ele>53.97</ele>
        <time>2016-05-16T09:14:43Z</time>
      </trkpt>
      <trkpt lat="48.04055" lon="-4.72229">
        <ele>53.97</ele>
        <time>2016-05-16T09:14:47Z</time>
      </trkpt>
      <trkpt lat="48.04055" lon="-4.72236">
        <ele>52.53</ele>
        <time>2016-05-16T09:14:51Z</time>
      </trkpt>
      <trkpt lat="48.04055" lon="-4.72252">
        <ele>52.53</ele>
        <time>2016-05-16T09:15:04Z</time>
      </trkpt>
      <trkpt lat="48.04055" lon="-4.72254">
        <ele>52.53</ele>
        <time>2016-05-16T09:15:06Z</time>
      </trkpt>
      <trkpt lat="48.04053" lon="-4.72261">
        <ele>52.05</ele>
        <time>2016-05-16T09:15:13Z</time>
      </trkpt>
      <trkpt lat="48.0405" lon="-4.72274">
        <ele>51.09</ele>
        <time>2016-05-16T09:15:26Z</time>
      </trkpt>
      <trkpt lat="48.04047" lon="-4.72284">
        <ele>50.13</ele>
        <time>2016-05-16T09:15:40Z</time>
      </trkpt>
      <trkpt lat="48.04045" lon="-4.72293">
        <ele>51.09</ele>
        <time>2016-05-16T09:15:49Z</time>
      </trkpt>
      <trkpt lat="48.04042" lon="-4.72314">
        <ele>51.57</ele>
        <time>2016-05-16T09:16:02Z</time>
      </trkpt>
      <trkpt lat="48.04041" lon="-4.72318">
        <ele>52.05</ele>
        <time>2016-05-16T09:16:05Z</time>
      </trkpt>
      <trkpt lat="48.04044" lon="-4.72338">
        <ele>52.05</ele>
        <time>2016-05-16T09:16:17Z</time>
      </trkpt>
      <trkpt lat="48.04035" lon="-4.72366">
        <ele>52.05</ele>
        <time>2016-05-16T09:16:33Z</time>
      </trkpt>
      <trkpt lat="48.04032" lon="-4.72393">
        <ele>53.01</ele>
        <time>2016-05-16T09:16:50Z</time>
      </trkpt>
      <trkpt lat="48.04028" lon="-4.72413">
        <ele>55.41</ele>
        <time>2016-05-16T09:17:04Z</time>
      </trkpt>
      <trkpt lat="48.04018" lon="-4.72426">
        <ele>58.3</ele>
        <time>2016-05-16T09:17:18Z</time>
      </trkpt>
      <trkpt lat="48.04016" lon="-4.72435">
        <ele>59.26</ele>
        <time>2016-05-16T09:17:25Z</time>
      </trkpt>
      <trkpt lat="48.04007" lon="-4.72455">
        <ele>60.22</ele>
        <time>2016-05-16T09:17:40Z</time>
      </trkpt>
      <trkpt lat="48.04007" lon="-4.72456">
        <ele>61.18</ele>
        <time>2016-05-16T09:17:41Z</time>
      </trkpt>
      <trkpt lat="48.04004" lon="-4.72462">
        <ele>61.18</ele>
        <time>2016-05-16T09:17:46Z</time>
      </trkpt>
      <trkpt lat="48.04002" lon="-4.72467">
        <ele>61.66</ele>
        <time>2016-05-16T09:17:50Z</time>
      </trkpt>
      <trkpt lat="48.04" lon="-4.72474">
        <ele>62.14</ele>
        <time>2016-05-16T09:17:55Z</time>
      </trkpt>
      <trkpt lat="48.04001" lon="-4.72504">
        <ele>62.14</ele>
        <time>2016-05-16T09:18:12Z</time>
      </trkpt>
      <trkpt lat="48.04002" lon="-4.72536">
        <ele>61.66</ele>
        <time>2016-05-16T09:18:30Z</time>
      </trkpt>
      <trkpt lat="48.04002" lon="-4.72542">
        <ele>60.7</ele>
        <time>2016-05-16T09:18:33Z</time>
      </trkpt>
      <trkpt lat="48.04004" lon="-4.72572">
        <ele>59.74</ele>
        <time>2016-05-16T09:18:49Z</time>
      </trkpt>
      <trkpt lat="48.04002" lon="-4.72603">
        <ele>58.78</ele>
        <time>2016-05-16T09:19:07Z</time>
      </trkpt>
      <trkpt lat="48.04" lon="-4.7263">
        <ele>57.82</ele>
        <time>2016-05-16T09:19:23Z</time>
      </trkpt>
      <trkpt lat="48.04" lon="-4.72657">
        <ele>56.86</ele>
        <time>2016-05-16T09:19:38Z</time>
      </trkpt>
      <trkpt lat="48.04001" lon="-4.72688">
        <ele>56.37</ele>
        <time>2016-05-16T09:19:55Z</time>
      </trkpt>
      <trkpt lat="48.03999" lon="-4.72715">
        <ele>54.93</ele>
        <time>2016-05-16T09:20:10Z</time>
      </trkpt>
      <trkpt lat="48.03996" lon="-4.72739">
        <ele>54.45</ele>
        <time>2016-05-16T09:20:24Z</time>
      </trkpt>
      <trkpt lat="48.03998" lon="-4.72754">
        <ele>54.45</ele>
        <time>2016-05-16T09:20:32Z</time>
      </trkpt>
      <trkpt lat="48.03997" lon="-4.72759">
        <ele>54.45</ele>
        <time>2016-05-16T09:20:35Z</time>
      </trkpt>
      <trkpt lat="48.03998" lon="-4.72765">
        <ele>54.45</ele>
        <time>2016-05-16T09:20:39Z</time>
      </trkpt>
      <trkpt lat="48.03996" lon="-4.72794">
        <ele>54.93</ele>
        <time>2016-05-16T09:20:55Z</time>
      </trkpt>
      <trkpt lat="48.03993" lon="-4.72816">
        <ele>55.89</ele>
        <time>2016-05-16T09:21:08Z</time>
      </trkpt>
      <trkpt lat="48.03991" lon="-4.72842">
        <ele>54.93</ele>
        <time>2016-05-16T09:21:23Z</time>
      </trkpt>
      <trkpt lat="48.03989" lon="-4.72875">
        <ele>54.93</ele>
        <time>2016-05-16T09:21:42Z</time>
      </trkpt>
      <trkpt lat="48.0399" lon="-4.72906">
        <ele>54.93</ele>
        <time>2016-05-16T09:21:59Z</time>
      </trkpt>
      <trkpt lat="48.03989" lon="-4.72909">
        <ele>55.89</ele>
        <time>2016-05-16T09:22:01Z</time>
      </trkpt>
      <trkpt lat="48.03989" lon="-4.72939">
        <ele>57.34</ele>
        <time>2016-05-16T09:22:18Z</time>
      </trkpt>
      <trkpt lat="48.0399" lon="-4.7295">
        <ele>58.3</ele>
        <time>2016-05-16T09:22:24Z</time>
      </trkpt>
      <trkpt lat="48.03995" lon="-4.72961">
        <ele>58.3</ele>
        <time>2016-05-16T09:22:32Z</time>
      </trkpt>
      <trkpt lat="48.03998" lon="-4.72974">
        <ele>58.3</ele>
        <time>2016-05-16T09:22:40Z</time>
      </trkpt>
      <trkpt lat="48.03998" lon="-4.72986">
        <ele>58.3</ele>
        <time>2016-05-16T09:22:47Z</time>
      </trkpt>
      <trkpt lat="48.03995" lon="-4.73014">
        <ele>59.26</ele>
        <time>2016-05-16T09:23:04Z</time>
      </trkpt>
      <trkpt lat="48.0399" lon="-4.73023">
        <ele>60.7</ele>
        <time>2016-05-16T09:23:11Z</time>
      </trkpt>
      <trkpt lat="48.0398" lon="-4.73034">
        <ele>62.62</ele>
        <time>2016-05-16T09:23:25Z</time>
      </trkpt>
      <trkpt lat="48.03974" lon="-4.7304">
        <ele>63.1</ele>
        <time>2016-05-16T09:23:32Z</time>
      </trkpt>
      <trkpt lat="48.03972" lon="-4.73044">
        <ele>63.1</ele>
        <time>2016-05-16T09:23:36Z</time>
      </trkpt>
      <trkpt lat="48.03957" lon="-4.73062">
        <ele>63.1</ele>
        <time>2016-05-16T09:23:53Z</time>
      </trkpt>
      <trkpt lat="48.03947" lon="-4.73078">
        <ele>63.1</ele>
        <time>2016-05-16T09:24:08Z</time>
      </trkpt>
      <trkpt lat="48.03948" lon="-4.73078">
        <ele>63.58</ele>
        <time>2016-05-16T09:24:18Z</time>
      </trkpt>
      <trkpt lat="48.03959" lon="-4.73106">
        <ele>63.58</ele>
        <time>2016-05-16T09:24:37Z</time>
      </trkpt>
      <trkpt lat="48.0397" lon="-4.73121">
        <ele>63.58</ele>
        <time>2016-05-16T09:24:50Z</time>
      </trkpt>
      <trkpt lat="48.03977" lon="-4.73137">
        <ele>63.58</ele>
        <time>2016-05-16T09:25:06Z</time>
      </trkpt>
      <trkpt lat="48.03979" lon="-4.73139">
        <ele>63.58</ele>
        <time>2016-05-16T09:25:09Z</time>
      </trkpt>
      <trkpt lat="48.03987" lon="-4.73148">
        <ele>62.62</ele>
        <time>2016-05-16T09:25:21Z</time>
      </trkpt>
      <trkpt lat="48.03996" lon="-4.73168">
        <ele>61.66</ele>
        <time>2016-05-16T09:25:37Z</time>
      </trkpt>
      <trkpt lat="48.03997" lon="-4.7317">
        <ele>61.66</ele>
        <time>2016-05-16T09:25:38Z</time>
      </trkpt>
      <trkpt lat="48.03999" lon="-4.73173">
        <ele>61.66</ele>
        <time>2016-05-16T09:25:41Z</time>
      </trkpt>
      <trkpt lat="48.04" lon="-4.7318">
        <ele>61.66</ele>
        <time>2016-05-16T09:25:46Z</time>
      </trkpt>
      <trkpt lat="48.04003" lon="-4.73187">
        <ele>61.66</ele>
        <time>2016-05-16T09:25:51Z</time>
      </trkpt>
      <trkpt lat="48.04007" lon="-4.73203">
        <ele>60.22</ele>
        <time>2016-05-16T09:26:04Z</time>
      </trkpt>
      <trkpt lat="48.04008" lon="-4.7322">
        <ele>60.22</ele>
        <time>2016-05-16T09:26:26Z</time>
      </trkpt>
      <trkpt lat="48.04008" lon="-4.73242">
        <ele>60.22</ele>
        <time>2016-05-16T09:26:41Z</time>
      </trkpt>
      <trkpt lat="48.04009" lon="-4.73251">
        <ele>60.22</ele>
        <time>2016-05-16T09:26:55Z</time>
      </trkpt>
      <trkpt lat="48.04009" lon="-4.73255">
        <ele>60.22</ele>
        <time>2016-05-16T09:27:00Z</time>
      </trkpt>
      <trkpt lat="48.03999" lon="-4.73278">
        <ele>60.22</ele>
        <time>2016-05-16T09:27:16Z</time>
      </trkpt>
      <trkpt lat="48.03988" lon="-4.73297">
        <ele>60.7</ele>
        <time>2016-05-16T09:27:31Z</time>
      </trkpt>
      <trkpt lat="48.03984" lon="-4.73324">
        <ele>61.66</ele>
        <time>2016-05-16T09:27:48Z</time>
      </trkpt>
      <trkpt lat="48.03982" lon="-4.73354">
        <ele>61.66</ele>
        <time>2016-05-16T09:28:05Z</time>
      </trkpt>
      <trkpt lat="48.0398" lon="-4.7336">
        <ele>61.66</ele>
        <time>2016-05-16T09:28:09Z</time>
      </trkpt>
      <trkpt lat="48.03972" lon="-4.73385">
        <ele>61.66</ele>
        <time>2016-05-16T09:28:26Z</time>
      </trkpt>
      <trkpt lat="48.0397" lon="-4.73392">
        <ele>60.7</ele>
        <time>2016-05-16T09:28:41Z</time>
      </trkpt>
      <trkpt lat="48.0397" lon="-4.73393">
        <ele>60.7</ele>
        <time>2016-05-16T09:29:09Z</time>
      </trkpt>
      <trkpt lat="48.03963" lon="-4.73404">
        <ele>60.22</ele>
        <time>2016-05-16T09:29:24Z</time>
      </trkpt>
      <trkpt lat="48.03955" lon="-4.73434">
        <ele>59.26</ele>
        <time>2016-05-16T09:29:42Z</time>
      </trkpt>
      <trkpt lat="48.0396" lon="-4.7346">
        <ele>57.82</ele>
        <time>2016-05-16T09:29:58Z</time>
      </trkpt>
      <trkpt lat="48.03967" lon="-4.73485">
        <ele>56.86</ele>
        <time>2016-05-16T09:30:14Z</time>
      </trkpt>
      <trkpt lat="48.03974" lon="-4.73514">
        <ele>54.45</ele>
        <time>2016-05-16T09:30:32Z</time>
      </trkpt>
      <trkpt lat="48.03975" lon="-4.73519">
        <ele>54.45</ele>
        <time>2016-05-16T09:30:35Z</time>
      </trkpt>
      <trkpt lat="48.03979" lon="-4.73544">
        <ele>53.49</ele>
        <time>2016-05-16T09:30:51Z</time>
      </trkpt>
      <trkpt lat="48.0398" lon="-4.7355">
        <ele>53.49</ele>
        <time>2016-05-16T09:30:56Z</time>
      </trkpt>
      <trkpt lat="48.03982" lon="-4.73558">
        <ele>52.53</ele>
        <time>2016-05-16T09:31:02Z</time>
      </trkpt>
      <trkpt lat="48.03981" lon="-4.73559">
        <ele>52.53</ele>
        <time>2016-05-16T09:31:08Z</time>
      </trkpt>
      <trkpt lat="48.03983" lon="-4.73572">
        <ele>52.53</ele>
        <time>2016-05-16T09:31:15Z</time>
      </trkpt>
      <trkpt lat="48.03983" lon="-4.73578">
        <ele>52.05</ele>
        <time>2016-05-16T09:31:19Z</time>
      </trkpt>
      <trkpt lat="48.03986" lon="-4.73584">
        <ele>52.05</ele>
        <time>2016-05-16T09:31:24Z</time>
      </trkpt>
      <trkpt lat="48.03987" lon="-4.73593">
        <ele>52.05</ele>
        <time>2016-05-16T09:31:30Z</time>
      </trkpt>
      <trkpt lat="48.03987" lon="-4.73599">
        <ele>51.57</ele>
        <time>2016-05-16T09:31:34Z</time>
      </trkpt>
      <trkpt lat="48.03986" lon="-4.73614">
        <ele>51.57</ele>
        <time>2016-05-16T09:31:45Z</time>
      </trkpt>
      <trkpt lat="48.03989" lon="-4.73636">
        <ele>51.09</ele>
        <time>2016-05-16T09:31:59Z</time>
      </trkpt>
      <trkpt lat="48.03989" lon="-4.73657">
        <ele>51.09</ele>
        <time>2016-05-16T09:32:14Z</time>
      </trkpt>
      <trkpt lat="48.03988" lon="-4.73667">
        <ele>51.09</ele>
        <time>2016-05-16T09:32:28Z</time>
      </trkpt>
      <trkpt lat="48.03987" lon="-4.73668">
        <ele>51.09</ele>
        <time>2016-05-16T09:32:40Z</time>
      </trkpt>
      <trkpt lat="48.03986" lon="-4.73669">
        <ele>51.09</ele>
        <time>2016-05-16T09:33:03Z</time>
      </trkpt>
      <trkpt lat="48.03987" lon="-4.73671">
        <ele>51.57</ele>
        <time>2016-05-16T09:33:32Z</time>
      </trkpt>
      <trkpt lat="48.03984" lon="-4.73669">
        <ele>51.57</ele>
        <time>2016-05-16T09:33:46Z</time>
      </trkpt>
      <trkpt lat="48.03986" lon="-4.73668">
        <ele>51.57</ele>
        <time>2016-05-16T09:34:01Z</time>
      </trkpt>
      <trkpt lat="48.03988" lon="-4.73666">
        <ele>51.57</ele>
        <time>2016-05-16T09:34:13Z</time>
      </trkpt>
      <trkpt lat="48.03988" lon="-4.73665">
        <ele>51.57</ele>
        <time>2016-05-16T09:34:35Z</time>
      </trkpt>
      <trkpt lat="48.03988" lon="-4.73666">
        <ele>51.57</ele>
        <time>2016-05-16T09:34:58Z</time>
      </trkpt>
      <trkpt lat="48.03988" lon="-4.73666">
        <ele>52.05</ele>
        <time>2016-05-16T09:35:16Z</time>
      </trkpt>
      <trkpt lat="48.03989" lon="-4.73665">
        <ele>52.05</ele>
        <time>2016-05-16T09:35:30Z</time>
      </trkpt>
      <trkpt lat="48.03988" lon="-4.73665">
        <ele>52.05</ele>
        <time>2016-05-16T09:35:51Z</time>
      </trkpt>
      <trkpt lat="48.03987" lon="-4.73665">
        <ele>52.05</ele>
        <time>2016-05-16T09:36:13Z</time>
      </trkpt>
      <trkpt lat="48.03987" lon="-4.73667">
        <ele>52.05</ele>
        <time>2016-05-16T09:36:24Z</time>
      </trkpt>
      <trkpt lat="48.03988" lon="-4.73666">
        <ele>52.05</ele>
        <time>2016-05-16T09:36:44Z</time>
      </trkpt>
      <trkpt lat="48.03989" lon="-4.73665">
        <ele>52.05</ele>
        <time>2016-05-16T09:36:58Z</time>
      </trkpt>
      <trkpt lat="48.0399" lon="-4.73665">
        <ele>52.53</ele>
        <time>2016-05-16T09:37:18Z</time>
      </trkpt>
      <trkpt lat="48.03989" lon="-4.73666">
        <ele>52.53</ele>
        <time>2016-05-16T09:37:46Z</time>
      </trkpt>
      <trkpt lat="48.03985" lon="-4.73666">
        <ele>52.53</ele>
        <time>2016-05-16T09:38:12Z</time>
      </trkpt>
      <trkpt lat="48.03986" lon="-4.73668">
        <ele>52.53</ele>
        <time>2016-05-16T09:38:30Z</time>
      </trkpt>
      <trkpt lat="48.03987" lon="-4.73665">
        <ele>52.53</ele>
        <time>2016-05-16T09:38:48Z</time>
      </trkpt>
      <trkpt lat="48.03987" lon="-4.73661">
        <ele>52.53</ele>
        <time>2016-05-16T09:39:13Z</time>
      </trkpt>
      <trkpt lat="48.03988" lon="-4.73664">
        <ele>52.53</ele>
        <time>2016-05-16T09:39:35Z</time>
      </trkpt>
      <trkpt lat="48.03989" lon="-4.73664">
        <ele>52.53</ele>
        <time>2016-05-16T09:40:00Z</time>
      </trkpt>
      <trkpt lat="48.03988" lon="-4.73665">
        <ele>53.01</ele>
        <time>2016-05-16T09:40:19Z</time>
      </trkpt>
      <trkpt lat="48.03988" lon="-4.73666">
        <ele>53.01</ele>
        <time>2016-05-16T09:40:38Z</time>
      </trkpt>
      <trkpt lat="48.03988" lon="-4.73664">
        <ele>53.01</ele>
        <time>2016-05-16T09:40:51Z</time>
      </trkpt>
      <trkpt lat="48.03987" lon="-4.73667">
        <ele>53.01</ele>
        <time>2016-05-16T09:41:11Z</time>
      </trkpt>
      <trkpt lat="48.03986" lon="-4.73669">
        <ele>53.01</ele>
        <time>2016-05-16T09:41:36Z</time>
      </trkpt>
      <trkpt lat="48.03987" lon="-4.73669">
        <ele>53.01</ele>
        <time>2016-05-16T09:42:00Z</time>
      </trkpt>
      <trkpt lat="48.03989" lon="-4.73667">
        <ele>53.49</ele>
        <time>2016-05-16T09:42:15Z</time>
      </trkpt>
      <trkpt lat="48.03989" lon="-4.73668">
        <ele>53.49</ele>
        <time>2016-05-16T09:42:35Z</time>
      </trkpt>
      <trkpt lat="48.03989" lon="-4.7367">
        <ele>53.49</ele>
        <time>2016-05-16T09:42:52Z</time>
      </trkpt>
      <trkpt lat="48.03988" lon="-4.73669">
        <ele>53.01</ele>
        <time>2016-05-16T09:43:13Z</time>
      </trkpt>
      <trkpt lat="48.03988" lon="-4.73669">
        <ele>52.53</ele>
        <time>2016-05-16T09:43:40Z</time>
      </trkpt>
      <trkpt lat="48.03989" lon="-4.73669">
        <ele>53.01</ele>
        <time>2016-05-16T09:44:11Z</time>
      </trkpt>
      <trkpt lat="48.03989" lon="-4.7367">
        <ele>53.01</ele>
        <time>2016-05-16T09:44:56Z</time>
      </trkpt>
      <trkpt lat="48.03987" lon="-4.73668">
        <ele>53.01</ele>
        <time>2016-05-16T09:45:24Z</time>
      </trkpt>
      <trkpt lat="48.03986" lon="-4.73667">
        <ele>53.97</ele>
        <time>2016-05-16T09:45:34Z</time>
      </trkpt>
      <trkpt lat="48.03987" lon="-4.73666">
        <ele>53.97</ele>
        <time>2016-05-16T09:45:53Z</time>
      </trkpt>
      <trkpt lat="48.03985" lon="-4.73668">
        <ele>54.45</ele>
        <time>2016-05-16T09:46:15Z</time>
      </trkpt>
      <trkpt lat="48.03986" lon="-4.73668">
        <ele>54.45</ele>
        <time>2016-05-16T09:46:32Z</time>
      </trkpt>
      <trkpt lat="48.03987" lon="-4.73666">
        <ele>54.45</ele>
        <time>2016-05-16T09:46:51Z</time>
      </trkpt>
      <trkpt lat="48.03986" lon="-4.73663">
        <ele>54.45</ele>
        <time>2016-05-16T09:47:08Z</time>
      </trkpt>
      <trkpt lat="48.03982" lon="-4.73654">
        <ele>54.45</ele>
        <time>2016-05-16T09:47:25Z</time>
      </trkpt>
      <trkpt lat="48.03981" lon="-4.73652">
        <ele>53.01</ele>
        <time>2016-05-16T09:47:34Z</time>
      </trkpt>
      <trkpt lat="48.03981" lon="-4.73643">
        <ele>53.01</ele>
        <time>2016-05-16T09:47:43Z</time>
      </trkpt>
      <trkpt lat="48.03976" lon="-4.73628">
        <ele>52.05</ele>
        <time>2016-05-16T09:47:57Z</time>
      </trkpt>
      <trkpt lat="48.03968" lon="-4.73618">
        <ele>50.61</ele>
        <time>2016-05-16T09:48:11Z</time>
      </trkpt>
      <trkpt lat="48.03967" lon="-4.73615">
        <ele>51.09</ele>
        <time>2016-05-16T09:48:14Z</time>
      </trkpt>
      <trkpt lat="48.03959" lon="-4.73604">
        <ele>51.09</ele>
        <time>2016-05-16T09:48:29Z</time>
      </trkpt>
      <trkpt lat="48.03954" lon="-4.7359">
        <ele>51.09</ele>
        <time>2016-05-16T09:48:44Z</time>
      </trkpt>
      <trkpt lat="48.03945" lon="-4.7358">
        <ele>52.05</ele>
        <time>2016-05-16T09:48:57Z</time>
      </trkpt>
      <trkpt lat="48.03938" lon="-4.73562">
        <ele>54.45</ele>
        <time>2016-05-16T09:49:14Z</time>
      </trkpt>
      <trkpt lat="48.03933" lon="-4.73546">
        <ele>55.41</ele>
        <time>2016-05-16T09:49:28Z</time>
      </trkpt>
      <trkpt lat="48.03927" lon="-4.73528">
        <ele>56.86</ele>
        <time>2016-05-16T09:49:43Z</time>
      </trkpt>
      <trkpt lat="48.03921" lon="-4.73508">
        <ele>58.78</ele>
        <time>2016-05-16T09:49:59Z</time>
      </trkpt>
      <trkpt lat="48.03919" lon="-4.73505">
        <ele>58.78</ele>
        <time>2016-05-16T09:50:02Z</time>
      </trkpt>
      <trkpt lat="48.03919" lon="-4.73502">
        <ele>59.74</ele>
        <time>2016-05-16T09:50:04Z</time>
      </trkpt>
      <trkpt lat="48.03913" lon="-4.73481">
        <ele>60.7</ele>
        <time>2016-05-16T09:50:20Z</time>
      </trkpt>
      <trkpt lat="48.0391" lon="-4.73456">
        <ele>61.66</ele>
        <time>2016-05-16T09:50:36Z</time>
      </trkpt>
      <trkpt lat="48.03907" lon="-4.73431">
        <ele>62.14</ele>
        <time>2016-05-16T09:50:52Z</time>
      </trkpt>
      <trkpt lat="48.03906" lon="-4.73423">
        <ele>62.62</ele>
        <time>2016-05-16T09:50:57Z</time>
      </trkpt>
      <trkpt lat="48.03904" lon="-4.73398">
        <ele>63.1</ele>
        <time>2016-05-16T09:51:13Z</time>
      </trkpt>
      <trkpt lat="48.03902" lon="-4.7337">
        <ele>64.07</ele>
        <time>2016-05-16T09:51:30Z</time>
      </trkpt>
      <trkpt lat="48.039" lon="-4.73346">
        <ele>65.03</ele>
        <time>2016-05-16T09:51:45Z</time>
      </trkpt>
      <trkpt lat="48.03898" lon="-4.73331">
        <ele>65.99</ele>
        <time>2016-05-16T09:52:00Z</time>
      </trkpt>
      <trkpt lat="48.03897" lon="-4.73331">
        <ele>66.47</ele>
        <time>2016-05-16T09:52:20Z</time>
      </trkpt>
      <trkpt lat="48.03891" lon="-4.73333">
        <ele>66.47</ele>
        <time>2016-05-16T09:52:29Z</time>
      </trkpt>
      <trkpt lat="48.03872" lon="-4.73319">
        <ele>66.47</ele>
        <time>2016-05-16T09:52:49Z</time>
      </trkpt>
      <trkpt lat="48.03864" lon="-4.73304">
        <ele>66.95</ele>
        <time>2016-05-16T09:53:03Z</time>
      </trkpt>
      <trkpt lat="48.03854" lon="-4.73288">
        <ele>66.95</ele>
        <time>2016-05-16T09:53:18Z</time>
      </trkpt>
      <trkpt lat="48.03844" lon="-4.73269">
        <ele>66.95</ele>
        <time>2016-05-16T09:53:34Z</time>
      </trkpt>
      <trkpt lat="48.0384" lon="-4.73264">
        <ele>67.43</ele>
        <time>2016-05-16T09:53:39Z</time>
      </trkpt>
      <trkpt lat="48.03835" lon="-4.73256">
        <ele>67.43</ele>
        <time>2016-05-16T09:53:46Z</time>
      </trkpt>
      <trkpt lat="48.03823" lon="-4.73237">
        <ele>67.43</ele>
        <time>2016-05-16T09:54:03Z</time>
      </trkpt>
      <trkpt lat="48.03814" lon="-4.73225">
        <ele>65.99</ele>
        <time>2016-05-16T09:54:14Z</time>
      </trkpt>
      <trkpt lat="48.03804" lon="-4.73203">
        <ele>65.99</ele>
        <time>2016-05-16T09:54:30Z</time>
      </trkpt>
      <trkpt lat="48.03797" lon="-4.7318">
        <ele>65.99</ele>
        <time>2016-05-16T09:54:46Z</time>
      </trkpt>
      <trkpt lat="48.03794" lon="-4.73174">
        <ele>65.99</ele>
        <time>2016-05-16T09:54:51Z</time>
      </trkpt>
      <trkpt lat="48.03791" lon="-4.7317">
        <ele>65.99</ele>
        <time>2016-05-16T09:55:08Z</time>
      </trkpt>
      <trkpt lat="48.03791" lon="-4.7317">
        <ele>65.99</ele>
        <time>2016-05-16T09:55:31Z</time>
      </trkpt>
      <trkpt lat="48.03791" lon="-4.73169">
        <ele>65.99</ele>
        <time>2016-05-16T09:55:50Z</time>
      </trkpt>
      <trkpt lat="48.03792" lon="-4.73167">
        <ele>65.99</ele>
        <time>2016-05-16T09:56:12Z</time>
      </trkpt>
      <trkpt lat="48.03791" lon="-4.73168">
        <ele>65.99</ele>
        <time>2016-05-16T09:56:32Z</time>
      </trkpt>
      <trkpt lat="48.03791" lon="-4.73167">
        <ele>65.99</ele>
        <time>2016-05-16T09:56:57Z</time>
      </trkpt>
      <trkpt lat="48.03791" lon="-4.73168">
        <ele>65.99</ele>
        <time>2016-05-16T09:57:21Z</time>
      </trkpt>
      <trkpt lat="48.03791" lon="-4.73168">
        <ele>65.99</ele>
        <time>2016-05-16T09:57:54Z</time>
      </trkpt>
      <trkpt lat="48.03791" lon="-4.73169">
        <ele>65.99</ele>
        <time>2016-05-16T09:58:17Z</time>
      </trkpt>
      <trkpt lat="48.03791" lon="-4.73167">
        <ele>65.99</ele>
        <time>2016-05-16T09:58:37Z</time>
      </trkpt>
      <trkpt lat="48.03793" lon="-4.73168">
        <ele>65.99</ele>
        <time>2016-05-16T09:59:04Z</time>
      </trkpt>
      <trkpt lat="48.03788" lon="-4.73162">
        <ele>65.99</ele>
        <time>2016-05-16T09:59:24Z</time>
      </trkpt>
      <trkpt lat="48.03787" lon="-4.73161">
        <ele>65.99</ele>
        <time>2016-05-16T09:59:25Z</time>
      </trkpt>
      <trkpt lat="48.03773" lon="-4.73137">
        <ele>65.99</ele>
        <time>2016-05-16T09:59:45Z</time>
      </trkpt>
      <trkpt lat="48.03765" lon="-4.73123">
        <ele>65.99</ele>
        <time>2016-05-16T09:59:56Z</time>
      </trkpt>
      <trkpt lat="48.03755" lon="-4.73097">
        <ele>65.99</ele>
        <time>2016-05-16T10:00:14Z</time>
      </trkpt>
      <trkpt lat="48.03752" lon="-4.7309">
        <ele>65.99</ele>
        <time>2016-05-16T10:00:19Z</time>
      </trkpt>
      <trkpt lat="48.0374" lon="-4.73072">
        <ele>65.99</ele>
        <time>2016-05-16T10:00:35Z</time>
      </trkpt>
      <trkpt lat="48.03731" lon="-4.73046">
        <ele>66.47</ele>
        <time>2016-05-16T10:00:53Z</time>
      </trkpt>
      <trkpt lat="48.03717" lon="-4.73026">
        <ele>66.47</ele>
        <time>2016-05-16T10:01:10Z</time>
      </trkpt>
      <trkpt lat="48.03703" lon="-4.7301">
        <ele>65.99</ele>
        <time>2016-05-16T10:01:27Z</time>
      </trkpt>
      <trkpt lat="48.03688" lon="-4.72998">
        <ele>65.03</ele>
        <time>2016-05-16T10:01:42Z</time>
      </trkpt>
      <trkpt lat="48.03679" lon="-4.72987">
        <ele>64.55</ele>
        <time>2016-05-16T10:01:53Z</time>
      </trkpt>
      <trkpt lat="48.03665" lon="-4.72961">
        <ele>65.03</ele>
        <time>2016-05-16T10:02:11Z</time>
      </trkpt>
      <trkpt lat="48.03654" lon="-4.72936">
        <ele>65.03</ele>
        <time>2016-05-16T10:02:28Z</time>
      </trkpt>
      <trkpt lat="48.03643" lon="-4.72912">
        <ele>65.03</ele>
        <time>2016-05-16T10:02:44Z</time>
      </trkpt>
      <trkpt lat="48.03629" lon="-4.72881">
        <ele>65.03</ele>
        <time>2016-05-16T10:03:04Z</time>
      </trkpt>
      <trkpt lat="48.03619" lon="-4.72853">
        <ele>65.03</ele>
        <time>2016-05-16T10:03:21Z</time>
      </trkpt>
      <trkpt lat="48.03614" lon="-4.72835">
        <ele>64.55</ele>
        <time>2016-05-16T10:03:33Z</time>
      </trkpt>
      <trkpt lat="48.03607" lon="-4.72823">
        <ele>63.1</ele>
        <time>2016-05-16T10:03:49Z</time>
      </trkpt>
      <trkpt lat="48.03598" lon="-4.72812">
        <ele>61.18</ele>
        <time>2016-05-16T10:04:03Z</time>
      </trkpt>
      <trkpt lat="48.03589" lon="-4.72804">
        <ele>59.26</ele>
        <time>2016-05-16T10:04:15Z</time>
      </trkpt>
      <trkpt lat="48.03584" lon="-4.72796">
        <ele>58.3</ele>
        <time>2016-05-16T10:04:25Z</time>
      </trkpt>
      <trkpt lat="48.03575" lon="-4.72785">
        <ele>56.86</ele>
        <time>2016-05-16T10:04:39Z</time>
      </trkpt>
      <trkpt lat="48.0357" lon="-4.72778">
        <ele>55.41</ele>
        <time>2016-05-16T10:04:47Z</time>
      </trkpt>
      <trkpt lat="48.03561" lon="-4.72767">
        <ele>54.93</ele>
        <time>2016-05-16T10:04:59Z</time>
      </trkpt>
      <trkpt lat="48.03546" lon="-4.72756">
        <ele>53.49</ele>
        <time>2016-05-16T10:05:15Z</time>
      </trkpt>
      <trkpt lat="48.03539" lon="-4.72749">
        <ele>53.01</ele>
        <time>2016-05-16T10:05:29Z</time>
      </trkpt>
      <trkpt lat="48.03537" lon="-4.72748">
        <ele>53.01</ele>
        <time>2016-05-16T10:05:31Z</time>
      </trkpt>
      <trkpt lat="48.0352" lon="-4.72743">
        <ele>51.09</ele>
        <time>2016-05-16T10:05:46Z</time>
      </trkpt>
      <trkpt lat="48.03518" lon="-4.72743">
        <ele>51.09</ele>
        <time>2016-05-16T10:05:50Z</time>
      </trkpt>
      <trkpt lat="48.03516" lon="-4.72743">
        <ele>50.13</ele>
        <time>2016-05-16T10:05:52Z</time>
      </trkpt>
      <trkpt lat="48.03503" lon="-4.72734">
        <ele>49.16</ele>
        <time>2016-05-16T10:06:06Z</time>
      </trkpt>
      <trkpt lat="48.035" lon="-4.72732">
        <ele>48.68</ele>
        <time>2016-05-16T10:06:10Z</time>
      </trkpt>
      <trkpt lat="48.03498" lon="-4.72731">
        <ele>48.2</ele>
        <time>2016-05-16T10:06:13Z</time>
      </trkpt>
      <trkpt lat="48.03481" lon="-4.72718">
        <ele>46.28</ele>
        <time>2016-05-16T10:06:30Z</time>
      </trkpt>
      <trkpt lat="48.03463" lon="-4.72707">
        <ele>45.8</ele>
        <time>2016-05-16T10:06:46Z</time>
      </trkpt>
      <trkpt lat="48.03444" lon="-4.72697">
        <ele>44.36</ele>
        <time>2016-05-16T10:07:02Z</time>
      </trkpt>
      <trkpt lat="48.03424" lon="-4.72688">
        <ele>44.36</ele>
        <time>2016-05-16T10:07:19Z</time>
      </trkpt>
      <trkpt lat="48.03406" lon="-4.72676">
        <ele>45.32</ele>
        <time>2016-05-16T10:07:36Z</time>
      </trkpt>
      <trkpt lat="48.034" lon="-4.72673">
        <ele>45.8</ele>
        <time>2016-05-16T10:07:41Z</time>
      </trkpt>
      <trkpt lat="48.03385" lon="-4.72665">
        <ele>44.36</ele>
        <time>2016-05-16T10:07:58Z</time>
      </trkpt>
      <trkpt lat="48.03367" lon="-4.72647">
        <ele>44.36</ele>
        <time>2016-05-16T10:08:17Z</time>
      </trkpt>
      <trkpt lat="48.03362" lon="-4.72637">
        <ele>45.8</ele>
        <time>2016-05-16T10:08:25Z</time>
      </trkpt>
      <trkpt lat="48.03355" lon="-4.72623">
        <ele>47.72</ele>
        <time>2016-05-16T10:08:38Z</time>
      </trkpt>
      <trkpt lat="48.03354" lon="-4.72614">
        <ele>49.16</ele>
        <time>2016-05-16T10:08:47Z</time>
      </trkpt>
      <trkpt lat="48.0335" lon="-4.72595">
        <ele>50.13</ele>
        <time>2016-05-16T10:09:00Z</time>
      </trkpt>
      <trkpt lat="48.03348" lon="-4.72588">
        <ele>50.61</ele>
        <time>2016-05-16T10:09:05Z</time>
      </trkpt>
      <trkpt lat="48.03346" lon="-4.72573">
        <ele>52.05</ele>
        <time>2016-05-16T10:09:18Z</time>
      </trkpt>
      <trkpt lat="48.03348" lon="-4.72566">
        <ele>52.53</ele>
        <time>2016-05-16T10:09:23Z</time>
      </trkpt>
      <trkpt lat="48.03348" lon="-4.72545">
        <ele>53.49</ele>
        <time>2016-05-16T10:09:41Z</time>
      </trkpt>
      <trkpt lat="48.03352" lon="-4.72528">
        <ele>54.45</ele>
        <time>2016-05-16T10:09:52Z</time>
      </trkpt>
      <trkpt lat="48.03361" lon="-4.72512">
        <ele>56.37</ele>
        <time>2016-05-16T10:10:07Z</time>
      </trkpt>
      <trkpt lat="48.03369" lon="-4.72499">
        <ele>57.34</ele>
        <time>2016-05-16T10:10:18Z</time>
      </trkpt>
      <trkpt lat="48.03372" lon="-4.72493">
        <ele>57.34</ele>
        <time>2016-05-16T10:10:23Z</time>
      </trkpt>
      <trkpt lat="48.03379" lon="-4.72484">
        <ele>57.82</ele>
        <time>2016-05-16T10:10:31Z</time>
      </trkpt>
      <trkpt lat="48.0339" lon="-4.72469">
        <ele>59.26</ele>
        <time>2016-05-16T10:10:47Z</time>
      </trkpt>
      <trkpt lat="48.03398" lon="-4.72465">
        <ele>59.74</ele>
        <time>2016-05-16T10:10:55Z</time>
      </trkpt>
      <trkpt lat="48.03413" lon="-4.72452">
        <ele>60.22</ele>
        <time>2016-05-16T10:11:11Z</time>
      </trkpt>
      <trkpt lat="48.03421" lon="-4.7245">
        <ele>60.7</ele>
        <time>2016-05-16T10:11:24Z</time>
      </trkpt>
      <trkpt lat="48.03416" lon="-4.72451">
        <ele>61.18</ele>
        <time>2016-05-16T10:11:46Z</time>
      </trkpt>
      <trkpt lat="48.03408" lon="-4.72453">
        <ele>61.18</ele>
        <time>2016-05-16T10:12:01Z</time>
      </trkpt>
      <trkpt lat="48.03409" lon="-4.72454">
        <ele>60.22</ele>
        <time>2016-05-16T10:12:12Z</time>
      </trkpt>
      <trkpt lat="48.03407" lon="-4.72454">
        <ele>60.22</ele>
        <time>2016-05-16T10:12:14Z</time>
      </trkpt>
      <trkpt lat="48.03404" lon="-4.72454">
        <ele>59.74</ele>
        <time>2016-05-16T10:12:31Z</time>
      </trkpt>
      <trkpt lat="48.03405" lon="-4.72454">
        <ele>59.74</ele>
        <time>2016-05-16T10:13:00Z</time>
      </trkpt>
      <trkpt lat="48.03401" lon="-4.72451">
        <ele>58.78</ele>
        <time>2016-05-16T10:13:20Z</time>
      </trkpt>
      <trkpt lat="48.03398" lon="-4.72445">
        <ele>58.3</ele>
        <time>2016-05-16T10:13:26Z</time>
      </trkpt>
      <trkpt lat="48.03395" lon="-4.72438">
        <ele>56.86</ele>
        <time>2016-05-16T10:13:32Z</time>
      </trkpt>
      <trkpt lat="48.03401" lon="-4.72427">
        <ele>54.93</ele>
        <time>2016-05-16T10:13:44Z</time>
      </trkpt>
      <trkpt lat="48.03397" lon="-4.72417">
        <ele>52.05</ele>
        <time>2016-05-16T10:13:57Z</time>
      </trkpt>
      <trkpt lat="48.03392" lon="-4.72417">
        <ele>51.09</ele>
        <time>2016-05-16T10:14:16Z</time>
      </trkpt>
      <trkpt lat="48.03386" lon="-4.72415">
        <ele>47.72</ele>
        <time>2016-05-16T10:14:32Z</time>
      </trkpt>
      <trkpt lat="48.03382" lon="-4.72413">
        <ele>46.76</ele>
        <time>2016-05-16T10:14:49Z</time>
      </trkpt>
      <trkpt lat="48.0338" lon="-4.72411">
        <ele>45.32</ele>
        <time>2016-05-16T10:15:20Z</time>
      </trkpt>
      <trkpt lat="48.03377" lon="-4.72405">
        <ele>42.92</ele>
        <time>2016-05-16T10:15:35Z</time>
      </trkpt>
      <trkpt lat="48.03375" lon="-4.72401">
        <ele>40.51</ele>
        <time>2016-05-16T10:15:44Z</time>
      </trkpt>
      <trkpt lat="48.03381" lon="-4.72395">
        <ele>39.55</ele>
        <time>2016-05-16T10:15:50Z</time>
      </trkpt>
      <trkpt lat="48.03399" lon="-4.72372">
        <ele>39.07</ele>
        <time>2016-05-16T10:16:08Z</time>
      </trkpt>
      <trkpt lat="48.03402" lon="-4.7236">
        <ele>38.11</ele>
        <time>2016-05-16T10:16:17Z</time>
      </trkpt>
      <trkpt lat="48.03411" lon="-4.7233">
        <ele>36.67</ele>
        <time>2016-05-16T10:16:36Z</time>
      </trkpt>
      <trkpt lat="48.03418" lon="-4.723">
        <ele>37.63</ele>
        <time>2016-05-16T10:16:53Z</time>
      </trkpt>
      <trkpt lat="48.03425" lon="-4.72279">
        <ele>38.11</ele>
        <time>2016-05-16T10:17:06Z</time>
      </trkpt>
      <trkpt lat="48.03434" lon="-4.72255">
        <ele>38.11</ele>
        <time>2016-05-16T10:17:22Z</time>
      </trkpt>
      <trkpt lat="48.03435" lon="-4.72249">
        <ele>37.15</ele>
        <time>2016-05-16T10:17:26Z</time>
      </trkpt>
      <trkpt lat="48.0344" lon="-4.72219">
        <ele>38.59</ele>
        <time>2016-05-16T10:17:44Z</time>
      </trkpt>
      <trkpt lat="48.03439" lon="-4.72211">
        <ele>40.03</ele>
        <time>2016-05-16T10:17:50Z</time>
      </trkpt>
      <trkpt lat="48.03436" lon="-4.72195">
        <ele>40.99</ele>
        <time>2016-05-16T10:18:06Z</time>
      </trkpt>
      <trkpt lat="48.03433" lon="-4.72185">
        <ele>40.99</ele>
        <time>2016-05-16T10:18:16Z</time>
      </trkpt>
      <trkpt lat="48.03428" lon="-4.72161">
        <ele>41.95</ele>
        <time>2016-05-16T10:18:33Z</time>
      </trkpt>
      <trkpt lat="48.03426" lon="-4.72145">
        <ele>43.4</ele>
        <time>2016-05-16T10:18:46Z</time>
      </trkpt>
      <trkpt lat="48.03423" lon="-4.72126">
        <ele>44.36</ele>
        <time>2016-05-16T10:18:59Z</time>
      </trkpt>
      <trkpt lat="48.03425" lon="-4.72108">
        <ele>45.32</ele>
        <time>2016-05-16T10:19:14Z</time>
      </trkpt>
      <trkpt lat="48.03429" lon="-4.72096">
        <ele>46.76</ele>
        <time>2016-05-16T10:19:28Z</time>
      </trkpt>
      <trkpt lat="48.03429" lon="-4.72098">
        <ele>46.28</ele>
        <time>2016-05-16T10:19:38Z</time>
      </trkpt>
      <trkpt lat="48.0343" lon="-4.72093">
        <ele>46.28</ele>
        <time>2016-05-16T10:19:44Z</time>
      </trkpt>
      <trkpt lat="48.03436" lon="-4.72064">
        <ele>47.72</ele>
        <time>2016-05-16T10:20:03Z</time>
      </trkpt>
      <trkpt lat="48.03434" lon="-4.7205">
        <ele>46.28</ele>
        <time>2016-05-16T10:20:13Z</time>
      </trkpt>
      <trkpt lat="48.0343" lon="-4.72043">
        <ele>44.84</ele>
        <time>2016-05-16T10:20:26Z</time>
      </trkpt>
      <trkpt lat="48.03428" lon="-4.72043">
        <ele>43.88</ele>
        <time>2016-05-16T10:20:42Z</time>
      </trkpt>
      <trkpt lat="48.03424" lon="-4.72038">
        <ele>42.92</ele>
        <time>2016-05-16T10:20:57Z</time>
      </trkpt>
      <trkpt lat="48.03418" lon="-4.7203">
        <ele>40.51</ele>
        <time>2016-05-16T10:21:07Z</time>
      </trkpt>
      <trkpt lat="48.03407" lon="-4.72022">
        <ele>36.67</ele>
        <time>2016-05-16T10:21:20Z</time>
      </trkpt>
      <trkpt lat="48.03397" lon="-4.72018">
        <ele>32.82</ele>
        <time>2016-05-16T10:21:33Z</time>
      </trkpt>
      <trkpt lat="48.03389" lon="-4.72008">
        <ele>31.38</ele>
        <time>2016-05-16T10:21:48Z</time>
      </trkpt>
      <trkpt lat="48.03384" lon="-4.72012">
        <ele>29.46</ele>
        <time>2016-05-16T10:22:11Z</time>
      </trkpt>
      <trkpt lat="48.03382" lon="-4.72013">
        <ele>28.98</ele>
        <time>2016-05-16T10:22:25Z</time>
      </trkpt>
      <trkpt lat="48.03385" lon="-4.72009">
        <ele>28.98</ele>
        <time>2016-05-16T10:22:44Z</time>
      </trkpt>
      <trkpt lat="48.03388" lon="-4.72002">
        <ele>30.9</ele>
        <time>2016-05-16T10:22:52Z</time>
      </trkpt>
      <trkpt lat="48.03391" lon="-4.71984">
        <ele>29.46</ele>
        <time>2016-05-16T10:23:03Z</time>
      </trkpt>
      <trkpt lat="48.03394" lon="-4.7197">
        <ele>27.53</ele>
        <time>2016-05-16T10:23:19Z</time>
      </trkpt>
      <trkpt lat="48.03397" lon="-4.71965">
        <ele>26.09</ele>
        <time>2016-05-16T10:23:32Z</time>
      </trkpt>
      <trkpt lat="48.03401" lon="-4.71958">
        <ele>24.17</ele>
        <time>2016-05-16T10:23:46Z</time>
      </trkpt>
      <trkpt lat="48.03402" lon="-4.71948">
        <ele>23.69</ele>
        <time>2016-05-16T10:23:55Z</time>
      </trkpt>
      <trkpt lat="48.03407" lon="-4.71944">
        <ele>24.65</ele>
        <time>2016-05-16T10:24:00Z</time>
      </trkpt>
      <trkpt lat="48.03412" lon="-4.7193">
        <ele>27.05</ele>
        <time>2016-05-16T10:24:15Z</time>
      </trkpt>
      <trkpt lat="48.03412" lon="-4.71929">
        <ele>27.53</ele>
        <time>2016-05-16T10:24:40Z</time>
      </trkpt>
      <trkpt lat="48.03415" lon="-4.71916">
        <ele>28.98</ele>
        <time>2016-05-16T10:24:53Z</time>
      </trkpt>
      <trkpt lat="48.03415" lon="-4.71914">
        <ele>28.98</ele>
        <time>2016-05-16T10:24:54Z</time>
      </trkpt>
      <trkpt lat="48.03413" lon="-4.71894">
        <ele>32.34</ele>
        <time>2016-05-16T10:25:08Z</time>
      </trkpt>
      <trkpt lat="48.03412" lon="-4.71884">
        <ele>33.3</ele>
        <time>2016-05-16T10:25:15Z</time>
      </trkpt>
      <trkpt lat="48.03408" lon="-4.71877">
        <ele>33.78</ele>
        <time>2016-05-16T10:25:21Z</time>
      </trkpt>
      <trkpt lat="48.03402" lon="-4.71853">
        <ele>36.19</ele>
        <time>2016-05-16T10:25:38Z</time>
      </trkpt>
      <trkpt lat="48.03399" lon="-4.71831">
        <ele>38.11</ele>
        <time>2016-05-16T10:25:53Z</time>
      </trkpt>
      <trkpt lat="48.03399" lon="-4.7183">
        <ele>38.11</ele>
        <time>2016-05-16T10:25:54Z</time>
      </trkpt>
      <trkpt lat="48.03397" lon="-4.71828">
        <ele>38.59</ele>
        <time>2016-05-16T10:25:56Z</time>
      </trkpt>
      <trkpt lat="48.03396" lon="-4.71825">
        <ele>39.07</ele>
        <time>2016-05-16T10:25:58Z</time>
      </trkpt>
      <trkpt lat="48.03394" lon="-4.71801">
        <ele>40.51</ele>
        <time>2016-05-16T10:26:14Z</time>
      </trkpt>
      <trkpt lat="48.03392" lon="-4.71792">
        <ele>40.99</ele>
        <time>2016-05-16T10:26:20Z</time>
      </trkpt>
      <trkpt lat="48.03393" lon="-4.71785">
        <ele>41.47</ele>
        <time>2016-05-16T10:26:25Z</time>
      </trkpt>
      <trkpt lat="48.03395" lon="-4.71763">
        <ele>42.92</ele>
        <time>2016-05-16T10:26:40Z</time>
      </trkpt>
      <trkpt lat="48.03403" lon="-4.71744">
        <ele>43.88</ele>
        <time>2016-05-16T10:26:55Z</time>
      </trkpt>
      <trkpt lat="48.03407" lon="-4.71735">
        <ele>44.84</ele>
        <time>2016-05-16T10:27:10Z</time>
      </trkpt>
      <trkpt lat="48.03409" lon="-4.71734">
        <ele>44.84</ele>
        <time>2016-05-16T10:27:31Z</time>
      </trkpt>
      <trkpt lat="48.0341" lon="-4.71733">
        <ele>44.84</ele>
        <time>2016-05-16T10:27:58Z</time>
      </trkpt>
      <trkpt lat="48.0341" lon="-4.71734">
        <ele>44.84</ele>
        <time>2016-05-16T10:28:16Z</time>
      </trkpt>
      <trkpt lat="48.03408" lon="-4.71734">
        <ele>44.84</ele>
        <time>2016-05-16T10:28:39Z</time>
      </trkpt>
      <trkpt lat="48.03407" lon="-4.71731">
        <ele>44.84</ele>
        <time>2016-05-16T10:28:57Z</time>
      </trkpt>
      <trkpt lat="48.03406" lon="-4.71724">
        <ele>44.84</ele>
        <time>2016-05-16T10:29:07Z</time>
      </trkpt>
      <trkpt lat="48.03404" lon="-4.71722">
        <ele>43.4</ele>
        <time>2016-05-16T10:29:09Z</time>
      </trkpt>
      <trkpt lat="48.03391" lon="-4.71701">
        <ele>41.95</ele>
        <time>2016-05-16T10:29:26Z</time>
      </trkpt>
      <trkpt lat="48.03379" lon="-4.71681">
        <ele>41.47</ele>
        <time>2016-05-16T10:29:43Z</time>
      </trkpt>
      <trkpt lat="48.03378" lon="-4.71679">
        <ele>41.47</ele>
        <time>2016-05-16T10:29:45Z</time>
      </trkpt>
      <trkpt lat="48.03374" lon="-4.71676">
        <ele>41.47</ele>
        <time>2016-05-16T10:29:49Z</time>
      </trkpt>
      <trkpt lat="48.03372" lon="-4.71672">
        <ele>41.47</ele>
        <time>2016-05-16T10:29:52Z</time>
      </trkpt>
      <trkpt lat="48.03373" lon="-4.71664">
        <ele>40.99</ele>
        <time>2016-05-16T10:29:57Z</time>
      </trkpt>
      <trkpt lat="48.03373" lon="-4.71637">
        <ele>40.51</ele>
        <time>2016-05-16T10:30:14Z</time>
      </trkpt>
      <trkpt lat="48.03373" lon="-4.71634">
        <ele>40.03</ele>
        <time>2016-05-16T10:30:16Z</time>
      </trkpt>
      <trkpt lat="48.03374" lon="-4.71615">
        <ele>38.11</ele>
        <time>2016-05-16T10:30:32Z</time>
      </trkpt>
      <trkpt lat="48.03369" lon="-4.71603">
        <ele>35.71</ele>
        <time>2016-05-16T10:30:45Z</time>
      </trkpt>
      <trkpt lat="48.03372" lon="-4.71587">
        <ele>32.34</ele>
        <time>2016-05-16T10:30:59Z</time>
      </trkpt>
      <trkpt lat="48.03371" lon="-4.71585">
        <ele>31.86</ele>
        <time>2016-05-16T10:31:01Z</time>
      </trkpt>
      <trkpt lat="48.03367" lon="-4.71583">
        <ele>30.42</ele>
        <time>2016-05-16T10:31:05Z</time>
      </trkpt>
      <trkpt lat="48.03364" lon="-4.71582">
        <ele>30.42</ele>
        <time>2016-05-16T10:31:08Z</time>
      </trkpt>
      <trkpt lat="48.03363" lon="-4.71577">
        <ele>29.46</ele>
        <time>2016-05-16T10:31:12Z</time>
      </trkpt>
      <trkpt lat="48.03369" lon="-4.71545">
        <ele>29.46</ele>
        <time>2016-05-16T10:31:31Z</time>
      </trkpt>
      <trkpt lat="48.0337" lon="-4.71542">
        <ele>30.42</ele>
        <time>2016-05-16T10:31:33Z</time>
      </trkpt>
      <trkpt lat="48.03373" lon="-4.71538">
        <ele>30.9</ele>
        <time>2016-05-16T10:31:37Z</time>
      </trkpt>
      <trkpt lat="48.03381" lon="-4.71512">
        <ele>30.9</ele>
        <time>2016-05-16T10:31:54Z</time>
      </trkpt>
      <trkpt lat="48.03386" lon="-4.715">
        <ele>31.38</ele>
        <time>2016-05-16T10:32:09Z</time>
      </trkpt>
      <trkpt lat="48.03387" lon="-4.715">
        <ele>31.38</ele>
        <time>2016-05-16T10:32:10Z</time>
      </trkpt>
      <trkpt lat="48.03402" lon="-4.71487">
        <ele>33.78</ele>
        <time>2016-05-16T10:32:27Z</time>
      </trkpt>
      <trkpt lat="48.03405" lon="-4.71485">
        <ele>33.78</ele>
        <time>2016-05-16T10:32:30Z</time>
      </trkpt>
      <trkpt lat="48.03417" lon="-4.7148">
        <ele>35.71</ele>
        <time>2016-05-16T10:32:44Z</time>
      </trkpt>
      <trkpt lat="48.0342" lon="-4.71476">
        <ele>35.71</ele>
        <time>2016-05-16T10:32:47Z</time>
      </trkpt>
      <trkpt lat="48.03422" lon="-4.71468">
        <ele>36.19</ele>
        <time>2016-05-16T10:32:55Z</time>
      </trkpt>
      <trkpt lat="48.03419" lon="-4.71456">
        <ele>35.71</ele>
        <time>2016-05-16T10:33:09Z</time>
      </trkpt>
      <trkpt lat="48.03419" lon="-4.71457">
        <ele>34.74</ele>
        <time>2016-05-16T10:33:35Z</time>
      </trkpt>
      <trkpt lat="48.03418" lon="-4.71449">
        <ele>34.74</ele>
        <time>2016-05-16T10:33:41Z</time>
      </trkpt>
      <trkpt lat="48.03411" lon="-4.71429">
        <ele>33.3</ele>
        <time>2016-05-16T10:33:58Z</time>
      </trkpt>
      <trkpt lat="48.03411" lon="-4.71428">
        <ele>33.3</ele>
        <time>2016-05-16T10:34:00Z</time>
      </trkpt>
      <trkpt lat="48.03404" lon="-4.71404">
        <ele>31.86</ele>
        <time>2016-05-16T10:34:17Z</time>
      </trkpt>
      <trkpt lat="48.03404" lon="-4.71401">
        <ele>31.86</ele>
        <time>2016-05-16T10:34:19Z</time>
      </trkpt>
      <trkpt lat="48.03405" lon="-4.7139">
        <ele>31.86</ele>
        <time>2016-05-16T10:34:26Z</time>
      </trkpt>
      <trkpt lat="48.03404" lon="-4.71388">
        <ele>32.82</ele>
        <time>2016-05-16T10:34:28Z</time>
      </trkpt>
      <trkpt lat="48.03397" lon="-4.71367">
        <ele>31.86</ele>
        <time>2016-05-16T10:34:43Z</time>
      </trkpt>
      <trkpt lat="48.03387" lon="-4.71347">
        <ele>30.9</ele>
        <time>2016-05-16T10:34:57Z</time>
      </trkpt>
      <trkpt lat="48.03376" lon="-4.7132">
        <ele>29.46</ele>
        <time>2016-05-16T10:35:15Z</time>
      </trkpt>
      <trkpt lat="48.03368" lon="-4.71299">
        <ele>28.98</ele>
        <time>2016-05-16T10:35:32Z</time>
      </trkpt>
      <trkpt lat="48.03361" lon="-4.71288">
        <ele>30.42</ele>
        <time>2016-05-16T10:35:42Z</time>
      </trkpt>
      <trkpt lat="48.03361" lon="-4.71284">
        <ele>30.9</ele>
        <time>2016-05-16T10:35:46Z</time>
      </trkpt>
      <trkpt lat="48.03369" lon="-4.71274">
        <ele>29.46</ele>
        <time>2016-05-16T10:35:56Z</time>
      </trkpt>
      <trkpt lat="48.0338" lon="-4.71264">
        <ele>27.05</ele>
        <time>2016-05-16T10:36:11Z</time>
      </trkpt>
      <trkpt lat="48.03387" lon="-4.71259">
        <ele>25.13</ele>
        <time>2016-05-16T10:36:21Z</time>
      </trkpt>
      <trkpt lat="48.03393" lon="-4.71255">
        <ele>23.69</ele>
        <time>2016-05-16T10:36:27Z</time>
      </trkpt>
      <trkpt lat="48.03403" lon="-4.71255">
        <ele>23.69</ele>
        <time>2016-05-16T10:36:44Z</time>
      </trkpt>
      <trkpt lat="48.03405" lon="-4.71257">
        <ele>23.21</ele>
        <time>2016-05-16T10:37:01Z</time>
      </trkpt>
      <trkpt lat="48.03411" lon="-4.71258">
        <ele>22.25</ele>
        <time>2016-05-16T10:37:18Z</time>
      </trkpt>
      <trkpt lat="48.03422" lon="-4.71248">
        <ele>18.88</ele>
        <time>2016-05-16T10:37:34Z</time>
      </trkpt>
      <trkpt lat="48.0343" lon="-4.71251">
        <ele>17.44</ele>
        <time>2016-05-16T10:37:49Z</time>
      </trkpt>
      <trkpt lat="48.03437" lon="-4.71254">
        <ele>14.56</ele>
        <time>2016-05-16T10:38:00Z</time>
      </trkpt>
      <trkpt lat="48.03446" lon="-4.71258">
        <ele>12.63</ele>
        <time>2016-05-16T10:38:15Z</time>
      </trkpt>
      <trkpt lat="48.03449" lon="-4.71255">
        <ele>10.71</ele>
        <time>2016-05-16T10:38:23Z</time>
      </trkpt>
      <trkpt lat="48.03453" lon="-4.7125">
        <ele>9.75</ele>
        <time>2016-05-16T10:38:33Z</time>
      </trkpt>
      <trkpt lat="48.03455" lon="-4.71246">
        <ele>10.71</ele>
        <time>2016-05-16T10:38:43Z</time>
      </trkpt>
      <trkpt lat="48.03454" lon="-4.71242">
        <ele>11.19</ele>
        <time>2016-05-16T10:38:51Z</time>
      </trkpt>
      <trkpt lat="48.03454" lon="-4.71242">
        <ele>11.19</ele>
        <time>2016-05-16T10:38:56Z</time>
      </trkpt>
      <trkpt lat="48.03453" lon="-4.71235">
        <ele>11.19</ele>
        <time>2016-05-16T10:39:05Z</time>
      </trkpt>
      <trkpt lat="48.0345" lon="-4.71234">
        <ele>11.19</ele>
        <time>2016-05-16T10:39:15Z</time>
      </trkpt>
      <trkpt lat="48.03445" lon="-4.71225">
        <ele>9.75</ele>
        <time>2016-05-16T10:39:24Z</time>
      </trkpt>
      <trkpt lat="48.03443" lon="-4.71223">
        <ele>9.75</ele>
        <time>2016-05-16T10:39:30Z</time>
      </trkpt>
      <trkpt lat="48.03442" lon="-4.71221">
        <ele>9.75</ele>
        <time>2016-05-16T10:39:32Z</time>
      </trkpt>
      <trkpt lat="48.03442" lon="-4.7121">
        <ele>9.27</ele>
        <time>2016-05-16T10:39:45Z</time>
      </trkpt>
      <trkpt lat="48.03436" lon="-4.71207">
        <ele>9.27</ele>
        <time>2016-05-16T10:39:59Z</time>
      </trkpt>
      <trkpt lat="48.03435" lon="-4.71205">
        <ele>9.27</ele>
        <time>2016-05-16T10:40:18Z</time>
      </trkpt>
      <trkpt lat="48.03433" lon="-4.71195">
        <ele>8.31</ele>
        <time>2016-05-16T10:40:34Z</time>
      </trkpt>
      <trkpt lat="48.03428" lon="-4.71191">
        <ele>7.83</ele>
        <time>2016-05-16T10:40:42Z</time>
      </trkpt>
      <trkpt lat="48.03425" lon="-4.71177">
        <ele>10.23</ele>
        <time>2016-05-16T10:40:57Z</time>
      </trkpt>
      <trkpt lat="48.03424" lon="-4.71165">
        <ele>12.15</ele>
        <time>2016-05-16T10:41:10Z</time>
      </trkpt>
      <trkpt lat="48.03421" lon="-4.71161">
        <ele>13.6</ele>
        <time>2016-05-16T10:41:29Z</time>
      </trkpt>
      <trkpt lat="48.03417" lon="-4.71156">
        <ele>16.48</ele>
        <time>2016-05-16T10:41:45Z</time>
      </trkpt>
      <trkpt lat="48.03411" lon="-4.71153">
        <ele>19.84</ele>
        <time>2016-05-16T10:41:58Z</time>
      </trkpt>
      <trkpt lat="48.03406" lon="-4.71152">
        <ele>21.77</ele>
        <time>2016-05-16T10:42:13Z</time>
      </trkpt>
      <trkpt lat="48.03404" lon="-4.71149">
        <ele>22.25</ele>
        <time>2016-05-16T10:42:35Z</time>
      </trkpt>
      <trkpt lat="48.03392" lon="-4.7113">
        <ele>25.13</ele>
        <time>2016-05-16T10:42:54Z</time>
      </trkpt>
      <trkpt lat="48.03376" lon="-4.71119">
        <ele>26.57</ele>
        <time>2016-05-16T10:43:11Z</time>
      </trkpt>
      <trkpt lat="48.03362" lon="-4.71099">
        <ele>28.02</ele>
        <time>2016-05-16T10:43:28Z</time>
      </trkpt>
      <trkpt lat="48.03356" lon="-4.71076">
        <ele>29.46</ele>
        <time>2016-05-16T10:43:44Z</time>
      </trkpt>
      <trkpt lat="48.03352" lon="-4.71054">
        <ele>30.9</ele>
        <time>2016-05-16T10:43:59Z</time>
      </trkpt>
      <trkpt lat="48.03349" lon="-4.71039">
        <ele>32.34</ele>
        <time>2016-05-16T10:44:15Z</time>
      </trkpt>
      <trkpt lat="48.03349" lon="-4.7104">
        <ele>32.34</ele>
        <time>2016-05-16T10:44:41Z</time>
      </trkpt>
      <trkpt lat="48.03347" lon="-4.7104">
        <ele>32.82</ele>
        <time>2016-05-16T10:45:03Z</time>
      </trkpt>
      <trkpt lat="48.03348" lon="-4.71042">
        <ele>32.82</ele>
        <time>2016-05-16T10:45:30Z</time>
      </trkpt>
      <trkpt lat="48.03349" lon="-4.71042">
        <ele>32.82</ele>
        <time>2016-05-16T10:46:00Z</time>
      </trkpt>
      <trkpt lat="48.03346" lon="-4.71039">
        <ele>32.82</ele>
        <time>2016-05-16T10:46:22Z</time>
      </trkpt>
      <trkpt lat="48.0334" lon="-4.71019">
        <ele>33.78</ele>
        <time>2016-05-16T10:46:37Z</time>
      </trkpt>
      <trkpt lat="48.03332" lon="-4.70997">
        <ele>34.74</ele>
        <time>2016-05-16T10:46:53Z</time>
      </trkpt>
      <trkpt lat="48.03321" lon="-4.7098">
        <ele>35.71</ele>
        <time>2016-05-16T10:47:07Z</time>
      </trkpt>
      <trkpt lat="48.03307" lon="-4.70968">
        <ele>36.67</ele>
        <time>2016-05-16T10:47:23Z</time>
      </trkpt>
      <trkpt lat="48.03297" lon="-4.7096">
        <ele>38.59</ele>
        <time>2016-05-16T10:47:36Z</time>
      </trkpt>
      <trkpt lat="48.03286" lon="-4.70946">
        <ele>40.99</ele>
        <time>2016-05-16T10:47:50Z</time>
      </trkpt>
      <trkpt lat="48.03276" lon="-4.70934">
        <ele>43.88</ele>
        <time>2016-05-16T10:48:04Z</time>
      </trkpt>
      <trkpt lat="48.0327" lon="-4.70921">
        <ele>46.28</ele>
        <time>2016-05-16T10:48:17Z</time>
      </trkpt>
      <trkpt lat="48.03268" lon="-4.7092">
        <ele>46.28</ele>
        <time>2016-05-16T10:48:19Z</time>
      </trkpt>
      <trkpt lat="48.0326" lon="-4.70911">
        <ele>48.2</ele>
        <time>2016-05-16T10:48:34Z</time>
      </trkpt>
      <trkpt lat="48.03243" lon="-4.70907">
        <ele>48.2</ele>
        <time>2016-05-16T10:48:52Z</time>
      </trkpt>
      <trkpt lat="48.03239" lon="-4.70907">
        <ele>48.2</ele>
        <time>2016-05-16T10:48:57Z</time>
      </trkpt>
      <trkpt lat="48.03225" lon="-4.70902">
        <ele>48.2</ele>
        <time>2016-05-16T10:49:12Z</time>
      </trkpt>
      <trkpt lat="48.03217" lon="-4.70896">
        <ele>48.2</ele>
        <time>2016-05-16T10:49:25Z</time>
      </trkpt>
      <trkpt lat="48.03218" lon="-4.70895">
        <ele>48.2</ele>
        <time>2016-05-16T10:49:50Z</time>
      </trkpt>
      <trkpt lat="48.0322" lon="-4.70895">
        <ele>48.2</ele>
        <time>2016-05-16T10:50:12Z</time>
      </trkpt>
      <trkpt lat="48.03219" lon="-4.709">
        <ele>47.72</ele>
        <time>2016-05-16T10:50:30Z</time>
      </trkpt>
      <trkpt lat="48.03218" lon="-4.70899">
        <ele>47.72</ele>
        <time>2016-05-16T10:50:53Z</time>
      </trkpt>
      <trkpt lat="48.03217" lon="-4.70899">
        <ele>47.24</ele>
        <time>2016-05-16T10:51:21Z</time>
      </trkpt>
      <trkpt lat="48.03218" lon="-4.70898">
        <ele>46.76</ele>
        <time>2016-05-16T10:51:44Z</time>
      </trkpt>
      <trkpt lat="48.03218" lon="-4.70897">
        <ele>46.28</ele>
        <time>2016-05-16T10:52:09Z</time>
      </trkpt>
      <trkpt lat="48.03218" lon="-4.70897">
        <ele>47.72</ele>
        <time>2016-05-16T10:52:11Z</time>
      </trkpt>
      <trkpt lat="48.03217" lon="-4.70896">
        <ele>48.2</ele>
        <time>2016-05-16T10:52:32Z</time>
      </trkpt>
      <trkpt lat="48.03218" lon="-4.70894">
        <ele>48.2</ele>
        <time>2016-05-16T10:52:53Z</time>
      </trkpt>
      <trkpt lat="48.03218" lon="-4.70893">
        <ele>48.2</ele>
        <time>2016-05-16T10:52:54Z</time>
      </trkpt>
      <trkpt lat="48.03222" lon="-4.70889">
        <ele>49.16</ele>
        <time>2016-05-16T10:53:06Z</time>
      </trkpt>
      <trkpt lat="48.0322" lon="-4.7089">
        <ele>49.16</ele>
        <time>2016-05-16T10:53:21Z</time>
      </trkpt>
      <trkpt lat="48.03222" lon="-4.70891">
        <ele>49.16</ele>
        <time>2016-05-16T10:53:35Z</time>
      </trkpt>
      <trkpt lat="48.03223" lon="-4.70892">
        <ele>49.16</ele>
        <time>2016-05-16T10:54:08Z</time>
      </trkpt>
      <trkpt lat="48.03224" lon="-4.70893">
        <ele>49.16</ele>
        <time>2016-05-16T10:54:38Z</time>
      </trkpt>
      <trkpt lat="48.03225" lon="-4.70892">
        <ele>47.72</ele>
        <time>2016-05-16T10:55:10Z</time>
      </trkpt>
      <trkpt lat="48.03223" lon="-4.70893">
        <ele>47.72</ele>
        <time>2016-05-16T10:55:35Z</time>
      </trkpt>
      <trkpt lat="48.03223" lon="-4.70892">
        <ele>47.72</ele>
        <time>2016-05-16T10:56:02Z</time>
      </trkpt>
      <trkpt lat="48.03223" lon="-4.70891">
        <ele>47.72</ele>
        <time>2016-05-16T10:56:33Z</time>
      </trkpt>
      <trkpt lat="48.03224" lon="-4.70892">
        <ele>47.72</ele>
        <time>2016-05-16T10:57:01Z</time>
      </trkpt>
      <trkpt lat="48.03224" lon="-4.70892">
        <ele>47.72</ele>
        <time>2016-05-16T10:57:25Z</time>
      </trkpt>
      <trkpt lat="48.03223" lon="-4.70892">
        <ele>47.72</ele>
        <time>2016-05-16T10:57:49Z</time>
      </trkpt>
      <trkpt lat="48.03223" lon="-4.70893">
        <ele>47.72</ele>
        <time>2016-05-16T10:58:12Z</time>
      </trkpt>
      <trkpt lat="48.03223" lon="-4.70891">
        <ele>47.72</ele>
        <time>2016-05-16T10:58:36Z</time>
      </trkpt>
      <trkpt lat="48.03223" lon="-4.70891">
        <ele>47.72</ele>
        <time>2016-05-16T10:59:08Z</time>
      </trkpt>
      <trkpt lat="48.03223" lon="-4.70891">
        <ele>47.72</ele>
        <time>2016-05-16T10:59:37Z</time>
      </trkpt>
      <trkpt lat="48.03223" lon="-4.70892">
        <ele>47.72</ele>
        <time>2016-05-16T11:00:03Z</time>
      </trkpt>
      <trkpt lat="48.03223" lon="-4.70893">
        <ele>48.68</ele>
        <time>2016-05-16T11:00:24Z</time>
      </trkpt>
      <trkpt lat="48.03224" lon="-4.70892">
        <ele>48.68</ele>
        <time>2016-05-16T11:00:55Z</time>
      </trkpt>
      <trkpt lat="48.03224" lon="-4.70893">
        <ele>47.72</ele>
        <time>2016-05-16T11:01:17Z</time>
      </trkpt>
      <trkpt lat="48.03223" lon="-4.70893">
        <ele>47.72</ele>
        <time>2016-05-16T11:01:53Z</time>
      </trkpt>
      <trkpt lat="48.03223" lon="-4.70892">
        <ele>47.72</ele>
        <time>2016-05-16T11:02:22Z</time>
      </trkpt>
      <trkpt lat="48.03223" lon="-4.70894">
        <ele>47.72</ele>
        <time>2016-05-16T11:02:53Z</time>
      </trkpt>
      <trkpt lat="48.03224" lon="-4.70894">
        <ele>47.72</ele>
        <time>2016-05-16T11:03:24Z</time>
      </trkpt>
      <trkpt lat="48.03225" lon="-4.70894">
        <ele>47.72</ele>
        <time>2016-05-16T11:04:00Z</time>
      </trkpt>
      <trkpt lat="48.03224" lon="-4.70893">
        <ele>48.2</ele>
        <time>2016-05-16T11:04:42Z</time>
      </trkpt>
      <trkpt lat="48.03223" lon="-4.70893">
        <ele>48.2</ele>
        <time>2016-05-16T11:05:14Z</time>
      </trkpt>
      <trkpt lat="48.03223" lon="-4.70895">
        <ele>48.2</ele>
        <time>2016-05-16T11:05:44Z</time>
      </trkpt>
      <trkpt lat="48.03223" lon="-4.70894">
        <ele>48.2</ele>
        <time>2016-05-16T11:06:23Z</time>
      </trkpt>
      <trkpt lat="48.03223" lon="-4.70894">
        <ele>48.2</ele>
        <time>2016-05-16T11:06:56Z</time>
      </trkpt>
      <trkpt lat="48.03223" lon="-4.70894">
        <ele>48.2</ele>
        <time>2016-05-16T11:07:34Z</time>
      </trkpt>
      <trkpt lat="48.03222" lon="-4.70894">
        <ele>48.2</ele>
        <time>2016-05-16T11:08:09Z</time>
      </trkpt>
      <trkpt lat="48.03223" lon="-4.70895">
        <ele>48.2</ele>
        <time>2016-05-16T11:08:41Z</time>
      </trkpt>
      <trkpt lat="48.03223" lon="-4.70894">
        <ele>48.2</ele>
        <time>2016-05-16T11:09:18Z</time>
      </trkpt>
      <trkpt lat="48.03222" lon="-4.70894">
        <ele>48.2</ele>
        <time>2016-05-16T11:09:48Z</time>
      </trkpt>
      <trkpt lat="48.03222" lon="-4.70893">
        <ele>48.2</ele>
        <time>2016-05-16T11:10:28Z</time>
      </trkpt>
      <trkpt lat="48.03222" lon="-4.70894">
        <ele>48.2</ele>
        <time>2016-05-16T11:10:56Z</time>
      </trkpt>
      <trkpt lat="48.03223" lon="-4.70893">
        <ele>48.2</ele>
        <time>2016-05-16T11:11:32Z</time>
      </trkpt>
      <trkpt lat="48.03223" lon="-4.70893">
        <ele>48.2</ele>
        <time>2016-05-16T11:12:03Z</time>
      </trkpt>
      <trkpt lat="48.03223" lon="-4.70894">
        <ele>48.2</ele>
        <time>2016-05-16T11:12:34Z</time>
      </trkpt>
      <trkpt lat="48.03223" lon="-4.70895">
        <ele>48.2</ele>
        <time>2016-05-16T11:13:09Z</time>
      </trkpt>
      <trkpt lat="48.03223" lon="-4.70895">
        <ele>48.2</ele>
        <time>2016-05-16T11:13:39Z</time>
      </trkpt>
      <trkpt lat="48.03223" lon="-4.70894">
        <ele>48.2</ele>
        <time>2016-05-16T11:14:09Z</time>
      </trkpt>
      <trkpt lat="48.03223" lon="-4.70894">
        <ele>48.2</ele>
        <time>2016-05-16T11:14:45Z</time>
      </trkpt>
      <trkpt lat="48.03223" lon="-4.70895">
        <ele>48.2</ele>
        <time>2016-05-16T11:15:20Z</time>
      </trkpt>
      <trkpt lat="48.03223" lon="-4.70893">
        <ele>48.2</ele>
        <time>2016-05-16T11:15:59Z</time>
      </trkpt>
      <trkpt lat="48.03223" lon="-4.70893">
        <ele>48.2</ele>
        <time>2016-05-16T11:16:36Z</time>
      </trkpt>
      <trkpt lat="48.03223" lon="-4.70894">
        <ele>48.2</ele>
        <time>2016-05-16T11:17:18Z</time>
      </trkpt>
      <trkpt lat="48.03223" lon="-4.70894">
        <ele>48.2</ele>
        <time>2016-05-16T11:17:58Z</time>
      </trkpt>
      <trkpt lat="48.03223" lon="-4.70894">
        <ele>48.2</ele>
        <time>2016-05-16T11:18:32Z</time>
      </trkpt>
      <trkpt lat="48.03223" lon="-4.70893">
        <ele>48.2</ele>
        <time>2016-05-16T11:19:07Z</time>
      </trkpt>
      <trkpt lat="48.03223" lon="-4.70895">
        <ele>48.2</ele>
        <time>2016-05-16T11:19:40Z</time>
      </trkpt>
      <trkpt lat="48.03222" lon="-4.70895">
        <ele>48.2</ele>
        <time>2016-05-16T11:20:14Z</time>
      </trkpt>
      <trkpt lat="48.03222" lon="-4.70895">
        <ele>48.2</ele>
        <time>2016-05-16T11:20:42Z</time>
      </trkpt>
      <trkpt lat="48.03223" lon="-4.70895">
        <ele>48.2</ele>
        <time>2016-05-16T11:21:16Z</time>
      </trkpt>
      <trkpt lat="48.03222" lon="-4.70895">
        <ele>48.2</ele>
        <time>2016-05-16T11:21:53Z</time>
      </trkpt>
      <trkpt lat="48.03222" lon="-4.70895">
        <ele>48.2</ele>
        <time>2016-05-16T11:22:22Z</time>
      </trkpt>
      <trkpt lat="48.03221" lon="-4.70894">
        <ele>48.2</ele>
        <time>2016-05-16T11:22:50Z</time>
      </trkpt>
      <trkpt lat="48.03221" lon="-4.70894">
        <ele>48.2</ele>
        <time>2016-05-16T11:23:23Z</time>
      </trkpt>
      <trkpt lat="48.03221" lon="-4.70894">
        <ele>48.2</ele>
        <time>2016-05-16T11:23:55Z</time>
      </trkpt>
      <trkpt lat="48.03222" lon="-4.70895">
        <ele>48.2</ele>
        <time>2016-05-16T11:24:29Z</time>
      </trkpt>
      <trkpt lat="48.03222" lon="-4.70894">
        <ele>48.2</ele>
        <time>2016-05-16T11:25:08Z</time>
      </trkpt>
      <trkpt lat="48.03222" lon="-4.70894">
        <ele>47.72</ele>
        <time>2016-05-16T11:25:44Z</time>
      </trkpt>
      <trkpt lat="48.0322" lon="-4.70894">
        <ele>47.72</ele>
        <time>2016-05-16T11:26:06Z</time>
      </trkpt>
      <trkpt lat="48.0322" lon="-4.70893">
        <ele>47.72</ele>
        <time>2016-05-16T11:26:26Z</time>
      </trkpt>
      <trkpt lat="48.03221" lon="-4.70893">
        <ele>47.72</ele>
        <time>2016-05-16T11:26:57Z</time>
      </trkpt>
      <trkpt lat="48.03221" lon="-4.70894">
        <ele>47.72</ele>
        <time>2016-05-16T11:27:20Z</time>
      </trkpt>
      <trkpt lat="48.03221" lon="-4.70893">
        <ele>47.72</ele>
        <time>2016-05-16T11:27:41Z</time>
      </trkpt>
      <trkpt lat="48.03221" lon="-4.70894">
        <ele>47.72</ele>
        <time>2016-05-16T11:28:00Z</time>
      </trkpt>
      <trkpt lat="48.0322" lon="-4.70894">
        <ele>47.72</ele>
        <time>2016-05-16T11:28:28Z</time>
      </trkpt>
      <trkpt lat="48.03221" lon="-4.70894">
        <ele>47.72</ele>
        <time>2016-05-16T11:28:51Z</time>
      </trkpt>
      <trkpt lat="48.03221" lon="-4.70893">
        <ele>47.72</ele>
        <time>2016-05-16T11:29:12Z</time>
      </trkpt>
      <trkpt lat="48.0322" lon="-4.70894">
        <ele>47.72</ele>
        <time>2016-05-16T11:29:38Z</time>
      </trkpt>
      <trkpt lat="48.03221" lon="-4.70894">
        <ele>47.72</ele>
        <time>2016-05-16T11:30:01Z</time>
      </trkpt>
      <trkpt lat="48.03222" lon="-4.70895">
        <ele>47.24</ele>
        <time>2016-05-16T11:30:30Z</time>
      </trkpt>
      <trkpt lat="48.03222" lon="-4.70896">
        <ele>47.24</ele>
        <time>2016-05-16T11:31:01Z</time>
      </trkpt>
      <trkpt lat="48.03221" lon="-4.70895">
        <ele>47.24</ele>
        <time>2016-05-16T11:31:22Z</time>
      </trkpt>
      <trkpt lat="48.03222" lon="-4.70894">
        <ele>47.24</ele>
        <time>2016-05-16T11:31:41Z</time>
      </trkpt>
      <trkpt lat="48.0322" lon="-4.70894">
        <ele>47.24</ele>
        <time>2016-05-16T11:32:03Z</time>
      </trkpt>
      <trkpt lat="48.0322" lon="-4.70897">
        <ele>47.24</ele>
        <time>2016-05-16T11:32:23Z</time>
      </trkpt>
      <trkpt lat="48.03218" lon="-4.70894">
        <ele>47.24</ele>
        <time>2016-05-16T11:32:37Z</time>
      </trkpt>
      <trkpt lat="48.03215" lon="-4.70899">
        <ele>46.28</ele>
        <time>2016-05-16T11:32:52Z</time>
      </trkpt>
      <trkpt lat="48.03218" lon="-4.70898">
        <ele>46.28</ele>
        <time>2016-05-16T11:33:13Z</time>
      </trkpt>
      <trkpt lat="48.0322" lon="-4.70891">
        <ele>45.8</ele>
        <time>2016-05-16T11:33:30Z</time>
      </trkpt>
      <trkpt lat="48.0322" lon="-4.7088">
        <ele>45.8</ele>
        <time>2016-05-16T11:33:41Z</time>
      </trkpt>
      <trkpt lat="48.03219" lon="-4.70855">
        <ele>45.32</ele>
        <time>2016-05-16T11:33:55Z</time>
      </trkpt>
      <trkpt lat="48.03219" lon="-4.7084">
        <ele>45.32</ele>
        <time>2016-05-16T11:34:08Z</time>
      </trkpt>
      <trkpt lat="48.03215" lon="-4.70819">
        <ele>45.32</ele>
        <time>2016-05-16T11:34:22Z</time>
      </trkpt>
      <trkpt lat="48.03215" lon="-4.70815">
        <ele>46.76</ele>
        <time>2016-05-16T11:34:29Z</time>
      </trkpt>
      <trkpt lat="48.03217" lon="-4.70796">
        <ele>47.24</ele>
        <time>2016-05-16T11:34:45Z</time>
      </trkpt>
      <trkpt lat="48.03219" lon="-4.70775">
        <ele>48.2</ele>
        <time>2016-05-16T11:35:01Z</time>
      </trkpt>
      <trkpt lat="48.03218" lon="-4.70769">
        <ele>49.65</ele>
        <time>2016-05-16T11:35:15Z</time>
      </trkpt>
      <trkpt lat="48.03215" lon="-4.70762">
        <ele>50.61</ele>
        <time>2016-05-16T11:35:33Z</time>
      </trkpt>
      <trkpt lat="48.03214" lon="-4.70755">
        <ele>50.61</ele>
        <time>2016-05-16T11:35:39Z</time>
      </trkpt>
      <trkpt lat="48.03214" lon="-4.70748">
        <ele>51.09</ele>
        <time>2016-05-16T11:35:44Z</time>
      </trkpt>
      <trkpt lat="48.03224" lon="-4.70735">
        <ele>53.97</ele>
        <time>2016-05-16T11:36:00Z</time>
      </trkpt>
      <trkpt lat="48.03229" lon="-4.70727">
        <ele>55.41</ele>
        <time>2016-05-16T11:36:08Z</time>
      </trkpt>
      <trkpt lat="48.03237" lon="-4.70713">
        <ele>56.86</ele>
        <time>2016-05-16T11:36:23Z</time>
      </trkpt>
      <trkpt lat="48.03241" lon="-4.70702">
        <ele>57.82</ele>
        <time>2016-05-16T11:36:32Z</time>
      </trkpt>
      <trkpt lat="48.03247" lon="-4.70679">
        <ele>58.78</ele>
        <time>2016-05-16T11:36:47Z</time>
      </trkpt>
      <trkpt lat="48.03245" lon="-4.70651">
        <ele>59.74</ele>
        <time>2016-05-16T11:37:04Z</time>
      </trkpt>
      <trkpt lat="48.03245" lon="-4.70622">
        <ele>59.74</ele>
        <time>2016-05-16T11:37:21Z</time>
      </trkpt>
      <trkpt lat="48.03243" lon="-4.7059">
        <ele>59.74</ele>
        <time>2016-05-16T11:37:39Z</time>
      </trkpt>
      <trkpt lat="48.03241" lon="-4.70564">
        <ele>59.74</ele>
        <time>2016-05-16T11:37:54Z</time>
      </trkpt>
      <trkpt lat="48.03242" lon="-4.70535">
        <ele>59.74</ele>
        <time>2016-05-16T11:38:11Z</time>
      </trkpt>
      <trkpt lat="48.0325" lon="-4.70512">
        <ele>60.22</ele>
        <time>2016-05-16T11:38:26Z</time>
      </trkpt>
      <trkpt lat="48.03264" lon="-4.70487">
        <ele>60.22</ele>
        <time>2016-05-16T11:38:45Z</time>
      </trkpt>
      <trkpt lat="48.03273" lon="-4.70468">
        <ele>61.18</ele>
        <time>2016-05-16T11:38:59Z</time>
      </trkpt>
      <trkpt lat="48.03282" lon="-4.7044">
        <ele>61.66</ele>
        <time>2016-05-16T11:39:18Z</time>
      </trkpt>
      <trkpt lat="48.03285" lon="-4.70411">
        <ele>61.66</ele>
        <time>2016-05-16T11:39:35Z</time>
      </trkpt>
      <trkpt lat="48.03286" lon="-4.70383">
        <ele>62.14</ele>
        <time>2016-05-16T11:39:51Z</time>
      </trkpt>
      <trkpt lat="48.03287" lon="-4.70357">
        <ele>63.1</ele>
        <time>2016-05-16T11:40:07Z</time>
      </trkpt>
      <trkpt lat="48.03288" lon="-4.70328">
        <ele>64.55</ele>
        <time>2016-05-16T11:40:24Z</time>
      </trkpt>
      <trkpt lat="48.03294" lon="-4.70299">
        <ele>65.03</ele>
        <time>2016-05-16T11:40:42Z</time>
      </trkpt>
      <trkpt lat="48.03305" lon="-4.70274">
        <ele>65.51</ele>
        <time>2016-05-16T11:40:59Z</time>
      </trkpt>
      <trkpt lat="48.03319" lon="-4.70249">
        <ele>65.51</ele>
        <time>2016-05-16T11:41:17Z</time>
      </trkpt>
      <trkpt lat="48.03331" lon="-4.70232">
        <ele>63.58</ele>
        <time>2016-05-16T11:41:31Z</time>
      </trkpt>
      <trkpt lat="48.03345" lon="-4.70214">
        <ele>62.14</ele>
        <time>2016-05-16T11:41:47Z</time>
      </trkpt>
      <trkpt lat="48.03351" lon="-4.70207">
        <ele>61.66</ele>
        <time>2016-05-16T11:41:54Z</time>
      </trkpt>
      <trkpt lat="48.03364" lon="-4.70183">
        <ele>59.26</ele>
        <time>2016-05-16T11:42:12Z</time>
      </trkpt>
      <trkpt lat="48.03377" lon="-4.70158">
        <ele>57.82</ele>
        <time>2016-05-16T11:42:30Z</time>
      </trkpt>
      <trkpt lat="48.03388" lon="-4.70133">
        <ele>56.86</ele>
        <time>2016-05-16T11:42:47Z</time>
      </trkpt>
      <trkpt lat="48.0339" lon="-4.70127">
        <ele>56.86</ele>
        <time>2016-05-16T11:42:51Z</time>
      </trkpt>
      <trkpt lat="48.03393" lon="-4.7012">
        <ele>56.37</ele>
        <time>2016-05-16T11:42:56Z</time>
      </trkpt>
      <trkpt lat="48.03406" lon="-4.70091">
        <ele>56.86</ele>
        <time>2016-05-16T11:43:15Z</time>
      </trkpt>
      <trkpt lat="48.03419" lon="-4.70064">
        <ele>56.37</ele>
        <time>2016-05-16T11:43:33Z</time>
      </trkpt>
      <trkpt lat="48.03433" lon="-4.70041">
        <ele>56.37</ele>
        <time>2016-05-16T11:43:51Z</time>
      </trkpt>
      <trkpt lat="48.03445" lon="-4.70019">
        <ele>56.37</ele>
        <time>2016-05-16T11:44:06Z</time>
      </trkpt>
      <trkpt lat="48.03455" lon="-4.70009">
        <ele>56.37</ele>
        <time>2016-05-16T11:44:18Z</time>
      </trkpt>
      <trkpt lat="48.03461" lon="-4.70015">
        <ele>56.86</ele>
        <time>2016-05-16T11:44:24Z</time>
      </trkpt>
      <trkpt lat="48.03477" lon="-4.70032">
        <ele>56.37</ele>
        <time>2016-05-16T11:44:42Z</time>
      </trkpt>
      <trkpt lat="48.03487" lon="-4.70045">
        <ele>57.82</ele>
        <time>2016-05-16T11:44:54Z</time>
      </trkpt>
      <trkpt lat="48.03503" lon="-4.70062">
        <ele>58.78</ele>
        <time>2016-05-16T11:45:12Z</time>
      </trkpt>
      <trkpt lat="48.03522" lon="-4.70076">
        <ele>60.22</ele>
        <time>2016-05-16T11:45:30Z</time>
      </trkpt>
      <trkpt lat="48.0354" lon="-4.70075">
        <ele>61.66</ele>
        <time>2016-05-16T11:45:46Z</time>
      </trkpt>
      <trkpt lat="48.03558" lon="-4.70062">
        <ele>62.14</ele>
        <time>2016-05-16T11:46:02Z</time>
      </trkpt>
      <trkpt lat="48.03577" lon="-4.70053">
        <ele>63.58</ele>
        <time>2016-05-16T11:46:19Z</time>
      </trkpt>
      <trkpt lat="48.03575" lon="-4.70081">
        <ele>65.03</ele>
        <time>2016-05-16T11:46:34Z</time>
      </trkpt>
      <trkpt lat="48.03568" lon="-4.70113">
        <ele>65.99</ele>
        <time>2016-05-16T11:46:52Z</time>
      </trkpt>
      <trkpt lat="48.03575" lon="-4.70145">
        <ele>66.47</ele>
        <time>2016-05-16T11:47:11Z</time>
      </trkpt>
      <trkpt lat="48.03583" lon="-4.70173">
        <ele>66.95</ele>
        <time>2016-05-16T11:47:28Z</time>
      </trkpt>
      <trkpt lat="48.036" lon="-4.70178">
        <ele>67.91</ele>
        <time>2016-05-16T11:47:44Z</time>
      </trkpt>
      <trkpt lat="48.0362" lon="-4.70177">
        <ele>68.39</ele>
        <time>2016-05-16T11:48:01Z</time>
      </trkpt>
      <trkpt lat="48.03643" lon="-4.70181">
        <ele>68.39</ele>
        <time>2016-05-16T11:48:20Z</time>
      </trkpt>
      <trkpt lat="48.03656" lon="-4.7018">
        <ele>66.95</ele>
        <time>2016-05-16T11:48:31Z</time>
      </trkpt>
      <trkpt lat="48.03677" lon="-4.70176">
        <ele>66.95</ele>
        <time>2016-05-16T11:48:49Z</time>
      </trkpt>
      <trkpt lat="48.03693" lon="-4.70174">
        <ele>66.47</ele>
        <time>2016-05-16T11:49:03Z</time>
      </trkpt>
      <trkpt lat="48.03695" lon="-4.70178">
        <ele>66.47</ele>
        <time>2016-05-16T11:49:09Z</time>
      </trkpt>
      <trkpt lat="48.03686" lon="-4.70202">
        <ele>65.51</ele>
        <time>2016-05-16T11:49:21Z</time>
      </trkpt>
      <trkpt lat="48.0368" lon="-4.70211">
        <ele>65.51</ele>
        <time>2016-05-16T11:49:28Z</time>
      </trkpt>
      <trkpt lat="48.03667" lon="-4.70233">
        <ele>65.03</ele>
        <time>2016-05-16T11:49:44Z</time>
      </trkpt>
      <trkpt lat="48.03654" lon="-4.70254">
        <ele>64.55</ele>
        <time>2016-05-16T11:50:00Z</time>
      </trkpt>
      <trkpt lat="48.03653" lon="-4.70258">
        <ele>64.55</ele>
        <time>2016-05-16T11:50:03Z</time>
      </trkpt>
      <trkpt lat="48.03658" lon="-4.70273">
        <ele>63.1</ele>
        <time>2016-05-16T11:50:14Z</time>
      </trkpt>
      <trkpt lat="48.03675" lon="-4.70294">
        <ele>60.7</ele>
        <time>2016-05-16T11:50:34Z</time>
      </trkpt>
      <trkpt lat="48.03689" lon="-4.70312">
        <ele>58.3</ele>
        <time>2016-05-16T11:50:51Z</time>
      </trkpt>
      <trkpt lat="48.03701" lon="-4.70329">
        <ele>55.89</ele>
        <time>2016-05-16T11:51:07Z</time>
      </trkpt>
      <trkpt lat="48.03702" lon="-4.70331">
        <ele>55.89</ele>
        <time>2016-05-16T11:51:09Z</time>
      </trkpt>
      <trkpt lat="48.03696" lon="-4.70358">
        <ele>53.97</ele>
        <time>2016-05-16T11:51:26Z</time>
      </trkpt>
      <trkpt lat="48.03697" lon="-4.70361">
        <ele>53.97</ele>
        <time>2016-05-16T11:51:28Z</time>
      </trkpt>
      <trkpt lat="48.03703" lon="-4.70369">
        <ele>53.49</ele>
        <time>2016-05-16T11:51:36Z</time>
      </trkpt>
      <trkpt lat="48.0372" lon="-4.70383">
        <ele>53.01</ele>
        <time>2016-05-16T11:51:54Z</time>
      </trkpt>
      <trkpt lat="48.03735" lon="-4.70395">
        <ele>52.53</ele>
        <time>2016-05-16T11:52:12Z</time>
      </trkpt>
      <trkpt lat="48.03745" lon="-4.70401">
        <ele>52.05</ele>
        <time>2016-05-16T11:52:23Z</time>
      </trkpt>
      <trkpt lat="48.03751" lon="-4.7043">
        <ele>53.49</ele>
        <time>2016-05-16T11:52:41Z</time>
      </trkpt>
      <trkpt lat="48.03762" lon="-4.70449">
        <ele>54.45</ele>
        <time>2016-05-16T11:52:56Z</time>
      </trkpt>
      <trkpt lat="48.03773" lon="-4.70466">
        <ele>56.37</ele>
        <time>2016-05-16T11:53:10Z</time>
      </trkpt>
      <trkpt lat="48.03784" lon="-4.70492">
        <ele>56.86</ele>
        <time>2016-05-16T11:53:27Z</time>
      </trkpt>
      <trkpt lat="48.03801" lon="-4.7051">
        <ele>57.82</ele>
        <time>2016-05-16T11:53:44Z</time>
      </trkpt>
      <trkpt lat="48.03816" lon="-4.70531">
        <ele>58.78</ele>
        <time>2016-05-16T11:54:01Z</time>
      </trkpt>
      <trkpt lat="48.03824" lon="-4.70561">
        <ele>60.22</ele>
        <time>2016-05-16T11:54:19Z</time>
      </trkpt>
      <trkpt lat="48.03813" lon="-4.70583">
        <ele>60.22</ele>
        <time>2016-05-16T11:54:34Z</time>
      </trkpt>
      <trkpt lat="48.0381" lon="-4.70589">
        <ele>60.22</ele>
        <time>2016-05-16T11:54:38Z</time>
      </trkpt>
      <trkpt lat="48.03803" lon="-4.70601">
        <ele>60.22</ele>
        <time>2016-05-16T11:54:49Z</time>
      </trkpt>
      <trkpt lat="48.03801" lon="-4.70602">
        <ele>60.22</ele>
        <time>2016-05-16T11:54:51Z</time>
      </trkpt>
      <trkpt lat="48.03796" lon="-4.70596">
        <ele>58.78</ele>
        <time>2016-05-16T11:54:56Z</time>
      </trkpt>
      <trkpt lat="48.03789" lon="-4.70588">
        <ele>56.86</ele>
        <time>2016-05-16T11:55:09Z</time>
      </trkpt>
      <trkpt lat="48.03791" lon="-4.70589">
        <ele>56.86</ele>
        <time>2016-05-16T11:55:35Z</time>
      </trkpt>
      <trkpt lat="48.03787" lon="-4.70594">
        <ele>56.86</ele>
        <time>2016-05-16T11:55:47Z</time>
      </trkpt>
      <trkpt lat="48.03789" lon="-4.70593">
        <ele>56.86</ele>
        <time>2016-05-16T11:56:02Z</time>
      </trkpt>
      <trkpt lat="48.03795" lon="-4.70594">
        <ele>58.3</ele>
        <time>2016-05-16T11:56:20Z</time>
      </trkpt>
      <trkpt lat="48.03803" lon="-4.706">
        <ele>59.26</ele>
        <time>2016-05-16T11:56:37Z</time>
      </trkpt>
      <trkpt lat="48.03802" lon="-4.70604">
        <ele>59.74</ele>
        <time>2016-05-16T11:57:00Z</time>
      </trkpt>
      <trkpt lat="48.03802" lon="-4.70604">
        <ele>59.74</ele>
        <time>2016-05-16T11:57:08Z</time>
      </trkpt>
      <trkpt lat="48.03803" lon="-4.70612">
        <ele>59.74</ele>
        <time>2016-05-16T11:57:14Z</time>
      </trkpt>
      <trkpt lat="48.038" lon="-4.70639">
        <ele>59.74</ele>
        <time>2016-05-16T11:57:31Z</time>
      </trkpt>
      <trkpt lat="48.03798" lon="-4.70663">
        <ele>60.7</ele>
        <time>2016-05-16T11:57:45Z</time>
      </trkpt>
      <trkpt lat="48.03798" lon="-4.70665">
        <ele>60.7</ele>
        <time>2016-05-16T11:57:46Z</time>
      </trkpt>
      <trkpt lat="48.03797" lon="-4.70675">
        <ele>61.18</ele>
        <time>2016-05-16T11:57:53Z</time>
      </trkpt>
      <trkpt lat="48.03797" lon="-4.70685">
        <ele>61.66</ele>
        <time>2016-05-16T11:57:59Z</time>
      </trkpt>
      <trkpt lat="48.03798" lon="-4.70689">
        <ele>62.14</ele>
        <time>2016-05-16T11:58:02Z</time>
      </trkpt>
      <trkpt lat="48.03806" lon="-4.70703">
        <ele>63.1</ele>
        <time>2016-05-16T11:58:15Z</time>
      </trkpt>
      <trkpt lat="48.03823" lon="-4.70692">
        <ele>64.07</ele>
        <time>2016-05-16T11:58:32Z</time>
      </trkpt>
      <trkpt lat="48.03835" lon="-4.70685">
        <ele>64.55</ele>
        <time>2016-05-16T11:58:49Z</time>
      </trkpt>
      <trkpt lat="48.0384" lon="-4.70678">
        <ele>65.03</ele>
        <time>2016-05-16T11:59:05Z</time>
      </trkpt>
      <trkpt lat="48.03841" lon="-4.70677">
        <ele>65.03</ele>
        <time>2016-05-16T11:59:06Z</time>
      </trkpt>
      <trkpt lat="48.03845" lon="-4.70672">
        <ele>65.03</ele>
        <time>2016-05-16T11:59:11Z</time>
      </trkpt>
      <trkpt lat="48.03855" lon="-4.7065">
        <ele>65.03</ele>
        <time>2016-05-16T11:59:28Z</time>
      </trkpt>
      <trkpt lat="48.03858" lon="-4.70646">
        <ele>65.03</ele>
        <time>2016-05-16T11:59:32Z</time>
      </trkpt>
      <trkpt lat="48.03859" lon="-4.70641">
        <ele>65.03</ele>
        <time>2016-05-16T11:59:36Z</time>
      </trkpt>
      <trkpt lat="48.03861" lon="-4.70634">
        <ele>65.03</ele>
        <time>2016-05-16T11:59:40Z</time>
      </trkpt>
      <trkpt lat="48.03871" lon="-4.70607">
        <ele>65.51</ele>
        <time>2016-05-16T11:59:58Z</time>
      </trkpt>
      <trkpt lat="48.03878" lon="-4.70587">
        <ele>65.51</ele>
        <time>2016-05-16T12:00:12Z</time>
      </trkpt>
      <trkpt lat="48.03881" lon="-4.70579">
        <ele>65.51</ele>
        <time>2016-05-16T12:00:17Z</time>
      </trkpt>
      <trkpt lat="48.03883" lon="-4.70571">
        <ele>65.51</ele>
        <time>2016-05-16T12:00:22Z</time>
      </trkpt>
      <trkpt lat="48.03892" lon="-4.70545">
        <ele>66.47</ele>
        <time>2016-05-16T12:00:40Z</time>
      </trkpt>
      <trkpt lat="48.03893" lon="-4.70544">
        <ele>66.47</ele>
        <time>2016-05-16T12:00:41Z</time>
      </trkpt>
      <trkpt lat="48.03896" lon="-4.70522">
        <ele>67.43</ele>
        <time>2016-05-16T12:00:53Z</time>
      </trkpt>
      <trkpt lat="48.03898" lon="-4.70494">
        <ele>68.39</ele>
        <time>2016-05-16T12:01:10Z</time>
      </trkpt>
      <trkpt lat="48.039" lon="-4.70488">
        <ele>68.87</ele>
        <time>2016-05-16T12:01:14Z</time>
      </trkpt>
      <trkpt lat="48.03905" lon="-4.70465">
        <ele>68.87</ele>
        <time>2016-05-16T12:01:29Z</time>
      </trkpt>
      <trkpt lat="48.03908" lon="-4.70449">
        <ele>69.35</ele>
        <time>2016-05-16T12:01:39Z</time>
      </trkpt>
      <trkpt lat="48.0391" lon="-4.70442">
        <ele>69.83</ele>
        <time>2016-05-16T12:01:44Z</time>
      </trkpt>
      <trkpt lat="48.03915" lon="-4.70412">
        <ele>70.31</ele>
        <time>2016-05-16T12:02:03Z</time>
      </trkpt>
      <trkpt lat="48.03917" lon="-4.70393">
        <ele>71.27</ele>
        <time>2016-05-16T12:02:15Z</time>
      </trkpt>
      <trkpt lat="48.03907" lon="-4.70371">
        <ele>71.27</ele>
        <time>2016-05-16T12:02:31Z</time>
      </trkpt>
      <trkpt lat="48.03901" lon="-4.70341">
        <ele>71.27</ele>
        <time>2016-05-16T12:02:48Z</time>
      </trkpt>
      <trkpt lat="48.03894" lon="-4.70311">
        <ele>71.27</ele>
        <time>2016-05-16T12:03:06Z</time>
      </trkpt>
      <trkpt lat="48.03884" lon="-4.70297">
        <ele>70.31</ele>
        <time>2016-05-16T12:03:20Z</time>
      </trkpt>
      <trkpt lat="48.0388" lon="-4.70292">
        <ele>69.83</ele>
        <time>2016-05-16T12:03:25Z</time>
      </trkpt>
      <trkpt lat="48.03877" lon="-4.70286">
        <ele>69.83</ele>
        <time>2016-05-16T12:03:29Z</time>
      </trkpt>
      <trkpt lat="48.03864" lon="-4.70259">
        <ele>68.87</ele>
        <time>2016-05-16T12:03:47Z</time>
      </trkpt>
      <trkpt lat="48.03854" lon="-4.70235">
        <ele>68.87</ele>
        <time>2016-05-16T12:04:02Z</time>
      </trkpt>
      <trkpt lat="48.03851" lon="-4.70201">
        <ele>68.87</ele>
        <time>2016-05-16T12:04:20Z</time>
      </trkpt>
      <trkpt lat="48.03844" lon="-4.70171">
        <ele>68.87</ele>
        <time>2016-05-16T12:04:38Z</time>
      </trkpt>
      <trkpt lat="48.03833" lon="-4.70148">
        <ele>68.87</ele>
        <time>2016-05-16T12:04:53Z</time>
      </trkpt>
      <trkpt lat="48.03826" lon="-4.70129">
        <ele>68.87</ele>
        <time>2016-05-16T12:05:05Z</time>
      </trkpt>
      <trkpt lat="48.0383" lon="-4.70125">
        <ele>68.87</ele>
        <time>2016-05-16T12:05:09Z</time>
      </trkpt>
      <trkpt lat="48.03854" lon="-4.70118">
        <ele>68.87</ele>
        <time>2016-05-16T12:05:28Z</time>
      </trkpt>
      <trkpt lat="48.0387" lon="-4.70113">
        <ele>68.87</ele>
        <time>2016-05-16T12:05:41Z</time>
      </trkpt>
      <trkpt lat="48.03878" lon="-4.70109">
        <ele>68.87</ele>
        <time>2016-05-16T12:05:48Z</time>
      </trkpt>
      <trkpt lat="48.039" lon="-4.70096">
        <ele>70.79</ele>
        <time>2016-05-16T12:06:08Z</time>
      </trkpt>
      <trkpt lat="48.0392" lon="-4.7008">
        <ele>70.31</ele>
        <time>2016-05-16T12:06:26Z</time>
      </trkpt>
      <trkpt lat="48.03939" lon="-4.70069">
        <ele>70.31</ele>
        <time>2016-05-16T12:06:43Z</time>
      </trkpt>
      <trkpt lat="48.03963" lon="-4.70063">
        <ele>70.31</ele>
        <time>2016-05-16T12:07:03Z</time>
      </trkpt>
      <trkpt lat="48.03985" lon="-4.70063">
        <ele>70.79</ele>
        <time>2016-05-16T12:07:21Z</time>
      </trkpt>
      <trkpt lat="48.03988" lon="-4.70067">
        <ele>70.79</ele>
        <time>2016-05-16T12:07:24Z</time>
      </trkpt>
      <trkpt lat="48.0399" lon="-4.70072">
        <ele>71.27</ele>
        <time>2016-05-16T12:07:27Z</time>
      </trkpt>
      <trkpt lat="48.03995" lon="-4.70106">
        <ele>71.27</ele>
        <time>2016-05-16T12:07:46Z</time>
      </trkpt>
      <trkpt lat="48.04007" lon="-4.70126">
        <ele>71.27</ele>
        <time>2016-05-16T12:08:02Z</time>
      </trkpt>
      <trkpt lat="48.04024" lon="-4.70127">
        <ele>72.24</ele>
        <time>2016-05-16T12:08:17Z</time>
      </trkpt>
      <trkpt lat="48.04038" lon="-4.70122">
        <ele>72.72</ele>
        <time>2016-05-16T12:08:30Z</time>
      </trkpt>
      <trkpt lat="48.04042" lon="-4.70118">
        <ele>72.72</ele>
        <time>2016-05-16T12:08:34Z</time>
      </trkpt>
      <trkpt lat="48.04065" lon="-4.70125">
        <ele>74.16</ele>
        <time>2016-05-16T12:08:54Z</time>
      </trkpt>
      <trkpt lat="48.04085" lon="-4.70138">
        <ele>74.16</ele>
        <time>2016-05-16T12:09:12Z</time>
      </trkpt>
      <trkpt lat="48.04106" lon="-4.70147">
        <ele>72.72</ele>
        <time>2016-05-16T12:09:30Z</time>
      </trkpt>
      <trkpt lat="48.04123" lon="-4.70152">
        <ele>72.24</ele>
        <time>2016-05-16T12:09:45Z</time>
      </trkpt>
      <trkpt lat="48.04128" lon="-4.70172">
        <ele>71.27</ele>
        <time>2016-05-16T12:10:00Z</time>
      </trkpt>
      <trkpt lat="48.04129" lon="-4.70174">
        <ele>71.27</ele>
        <time>2016-05-16T12:10:02Z</time>
      </trkpt>
      <trkpt lat="48.0413" lon="-4.70187">
        <ele>71.27</ele>
        <time>2016-05-16T12:10:12Z</time>
      </trkpt>
      <trkpt lat="48.04128" lon="-4.70211">
        <ele>70.79</ele>
        <time>2016-05-16T12:10:28Z</time>
      </trkpt>
      <trkpt lat="48.04129" lon="-4.70236">
        <ele>70.79</ele>
        <time>2016-05-16T12:10:46Z</time>
      </trkpt>
      <trkpt lat="48.04128" lon="-4.7026">
        <ele>71.76</ele>
        <time>2016-05-16T12:11:00Z</time>
      </trkpt>
      <trkpt lat="48.04128" lon="-4.70288">
        <ele>72.24</ele>
        <time>2016-05-16T12:11:16Z</time>
      </trkpt>
      <trkpt lat="48.04129" lon="-4.70289">
        <ele>72.24</ele>
        <time>2016-05-16T12:11:32Z</time>
      </trkpt>
      <trkpt lat="48.04132" lon="-4.7029">
        <ele>72.24</ele>
        <time>2016-05-16T12:11:38Z</time>
      </trkpt>
      <trkpt lat="48.04152" lon="-4.70289">
        <ele>70.31</ele>
        <time>2016-05-16T12:11:57Z</time>
      </trkpt>
      <trkpt lat="48.0417" lon="-4.7028">
        <ele>67.91</ele>
        <time>2016-05-16T12:12:12Z</time>
      </trkpt>
      <trkpt lat="48.04178" lon="-4.70284">
        <ele>66.47</ele>
        <time>2016-05-16T12:12:21Z</time>
      </trkpt>
      <trkpt lat="48.04187" lon="-4.70304">
        <ele>64.55</ele>
        <time>2016-05-16T12:12:35Z</time>
      </trkpt>
      <trkpt lat="48.04204" lon="-4.70324">
        <ele>62.62</ele>
        <time>2016-05-16T12:12:53Z</time>
      </trkpt>
      <trkpt lat="48.04221" lon="-4.70339">
        <ele>60.7</ele>
        <time>2016-05-16T12:13:10Z</time>
      </trkpt>
      <trkpt lat="48.04226" lon="-4.70348">
        <ele>60.7</ele>
        <time>2016-05-16T12:13:19Z</time>
      </trkpt>
      <trkpt lat="48.04219" lon="-4.70371">
        <ele>60.22</ele>
        <time>2016-05-16T12:13:35Z</time>
      </trkpt>
      <trkpt lat="48.04219" lon="-4.70373">
        <ele>60.22</ele>
        <time>2016-05-16T12:13:57Z</time>
      </trkpt>
      <trkpt lat="48.04216" lon="-4.70382">
        <ele>60.22</ele>
        <time>2016-05-16T12:14:04Z</time>
      </trkpt>
      <trkpt lat="48.04219" lon="-4.70393">
        <ele>60.22</ele>
        <time>2016-05-16T12:14:21Z</time>
      </trkpt>
      <trkpt lat="48.04222" lon="-4.7041">
        <ele>60.22</ele>
        <time>2016-05-16T12:14:36Z</time>
      </trkpt>
      <trkpt lat="48.04227" lon="-4.70439">
        <ele>58.78</ele>
        <time>2016-05-16T12:14:52Z</time>
      </trkpt>
      <trkpt lat="48.04224" lon="-4.70467">
        <ele>57.34</ele>
        <time>2016-05-16T12:15:08Z</time>
      </trkpt>
      <trkpt lat="48.04224" lon="-4.70496">
        <ele>56.37</ele>
        <time>2016-05-16T12:15:24Z</time>
      </trkpt>
      <trkpt lat="48.04226" lon="-4.70513">
        <ele>55.89</ele>
        <time>2016-05-16T12:15:34Z</time>
      </trkpt>
      <trkpt lat="48.04239" lon="-4.70514">
        <ele>54.93</ele>
        <time>2016-05-16T12:15:47Z</time>
      </trkpt>
      <trkpt lat="48.04257" lon="-4.70517">
        <ele>52.53</ele>
        <time>2016-05-16T12:16:03Z</time>
      </trkpt>
      <trkpt lat="48.04273" lon="-4.70519">
        <ele>50.13</ele>
        <time>2016-05-16T12:16:19Z</time>
      </trkpt>
      <trkpt lat="48.04281" lon="-4.7052">
        <ele>48.68</ele>
        <time>2016-05-16T12:16:34Z</time>
      </trkpt>
      <trkpt lat="48.0428" lon="-4.70521">
        <ele>48.68</ele>
        <time>2016-05-16T12:16:55Z</time>
      </trkpt>
      <trkpt lat="48.04283" lon="-4.7052">
        <ele>48.2</ele>
        <time>2016-05-16T12:17:14Z</time>
      </trkpt>
      <trkpt lat="48.04295" lon="-4.70517">
        <ele>46.76</ele>
        <time>2016-05-16T12:17:25Z</time>
      </trkpt>
      <trkpt lat="48.0431" lon="-4.70515">
        <ele>44.36</ele>
        <time>2016-05-16T12:17:41Z</time>
      </trkpt>
      <trkpt lat="48.04324" lon="-4.7051">
        <ele>41.95</ele>
        <time>2016-05-16T12:17:54Z</time>
      </trkpt>
      <trkpt lat="48.04326" lon="-4.7051">
        <ele>40.99</ele>
        <time>2016-05-16T12:17:57Z</time>
      </trkpt>
      <trkpt lat="48.04338" lon="-4.70507">
        <ele>38.59</ele>
        <time>2016-05-16T12:18:09Z</time>
      </trkpt>
      <trkpt lat="48.04345" lon="-4.70505">
        <ele>36.67</ele>
        <time>2016-05-16T12:18:15Z</time>
      </trkpt>
      <trkpt lat="48.04357" lon="-4.70501">
        <ele>34.26</ele>
        <time>2016-05-16T12:18:27Z</time>
      </trkpt>
      <trkpt lat="48.04367" lon="-4.70497">
        <ele>31.86</ele>
        <time>2016-05-16T12:18:37Z</time>
      </trkpt>
      <trkpt lat="48.0438" lon="-4.70492">
        <ele>29.46</ele>
        <time>2016-05-16T12:18:50Z</time>
      </trkpt>
      <trkpt lat="48.04388" lon="-4.70492">
        <ele>27.05</ele>
        <time>2016-05-16T12:18:59Z</time>
      </trkpt>
      <trkpt lat="48.04389" lon="-4.70492">
        <ele>27.05</ele>
        <time>2016-05-16T12:19:00Z</time>
      </trkpt>
      <trkpt lat="48.04402" lon="-4.70491">
        <ele>25.61</ele>
        <time>2016-05-16T12:19:11Z</time>
      </trkpt>
      <trkpt lat="48.04413" lon="-4.70486">
        <ele>23.69</ele>
        <time>2016-05-16T12:19:21Z</time>
      </trkpt>
      <trkpt lat="48.04414" lon="-4.70483">
        <ele>23.21</ele>
        <time>2016-05-16T12:19:23Z</time>
      </trkpt>
      <trkpt lat="48.04413" lon="-4.70481">
        <ele>23.21</ele>
        <time>2016-05-16T12:19:24Z</time>
      </trkpt>
      <trkpt lat="48.04413" lon="-4.70478">
        <ele>22.73</ele>
        <time>2016-05-16T12:19:25Z</time>
      </trkpt>
      <trkpt lat="48.04413" lon="-4.70474">
        <ele>22.73</ele>
        <time>2016-05-16T12:19:29Z</time>
      </trkpt>
      <trkpt lat="48.04413" lon="-4.70472">
        <ele>22.25</ele>
        <time>2016-05-16T12:19:30Z</time>
      </trkpt>
      <trkpt lat="48.04416" lon="-4.70465">
        <ele>22.25</ele>
        <time>2016-05-16T12:19:34Z</time>
      </trkpt>
      <trkpt lat="48.0442" lon="-4.70464">
        <ele>21.29</ele>
        <time>2016-05-16T12:19:40Z</time>
      </trkpt>
      <trkpt lat="48.04421" lon="-4.70464">
        <ele>21.29</ele>
        <time>2016-05-16T12:19:41Z</time>
      </trkpt>
      <trkpt lat="48.04431" lon="-4.70465">
        <ele>18.88</ele>
        <time>2016-05-16T12:19:51Z</time>
      </trkpt>
      <trkpt lat="48.04441" lon="-4.7047">
        <ele>17.92</ele>
        <time>2016-05-16T12:20:01Z</time>
      </trkpt>
      <trkpt lat="48.04451" lon="-4.70469">
        <ele>16.48</ele>
        <time>2016-05-16T12:20:13Z</time>
      </trkpt>
      <trkpt lat="48.04452" lon="-4.70467">
        <ele>16</ele>
        <time>2016-05-16T12:20:15Z</time>
      </trkpt>
      <trkpt lat="48.04456" lon="-4.70462">
        <ele>15.04</ele>
        <time>2016-05-16T12:20:22Z</time>
      </trkpt>
      <trkpt lat="48.04457" lon="-4.70462">
        <ele>14.56</ele>
        <time>2016-05-16T12:20:23Z</time>
      </trkpt>
      <trkpt lat="48.04459" lon="-4.70461">
        <ele>14.56</ele>
        <time>2016-05-16T12:20:24Z</time>
      </trkpt>
      <trkpt lat="48.04461" lon="-4.7046">
        <ele>13.6</ele>
        <time>2016-05-16T12:20:28Z</time>
      </trkpt>
      <trkpt lat="48.04462" lon="-4.70459">
        <ele>13.6</ele>
        <time>2016-05-16T12:20:29Z</time>
      </trkpt>
      <trkpt lat="48.04472" lon="-4.70455">
        <ele>11.67</ele>
        <time>2016-05-16T12:20:39Z</time>
      </trkpt>
      <trkpt lat="48.04474" lon="-4.70454">
        <ele>11.67</ele>
        <time>2016-05-16T12:20:41Z</time>
      </trkpt>
      <trkpt lat="48.04476" lon="-4.70454">
        <ele>11.19</ele>
        <time>2016-05-16T12:20:42Z</time>
      </trkpt>
      <trkpt lat="48.04477" lon="-4.70453">
        <ele>11.19</ele>
        <time>2016-05-16T12:20:43Z</time>
      </trkpt>
      <trkpt lat="48.0449" lon="-4.70451">
        <ele>9.75</ele>
        <time>2016-05-16T12:20:55Z</time>
      </trkpt>
      <trkpt lat="48.04503" lon="-4.7046">
        <ele>8.79</ele>
        <time>2016-05-16T12:21:07Z</time>
      </trkpt>
      <trkpt lat="48.04513" lon="-4.70466">
        <ele>6.87</ele>
        <time>2016-05-16T12:21:19Z</time>
      </trkpt>
      <trkpt lat="48.04527" lon="-4.7047">
        <ele>6.39</ele>
        <time>2016-05-16T12:21:31Z</time>
      </trkpt>
      <trkpt lat="48.04536" lon="-4.70472">
        <ele>6.39</ele>
        <time>2016-05-16T12:21:38Z</time>
      </trkpt>
      <trkpt lat="48.04537" lon="-4.70472">
        <ele>5.91</ele>
        <time>2016-05-16T12:21:39Z</time>
      </trkpt>
      <trkpt lat="48.04541" lon="-4.70471">
        <ele>5.42</ele>
        <time>2016-05-16T12:21:43Z</time>
      </trkpt>
      <trkpt lat="48.04542" lon="-4.7047">
        <ele>5.42</ele>
        <time>2016-05-16T12:21:44Z</time>
      </trkpt>
      <trkpt lat="48.04554" lon="-4.70473">
        <ele>4.94</ele>
        <time>2016-05-16T12:21:55Z</time>
      </trkpt>
      <trkpt lat="48.04568" lon="-4.70477">
        <ele>4.94</ele>
        <time>2016-05-16T12:22:07Z</time>
      </trkpt>
      <trkpt lat="48.04579" lon="-4.7048">
        <ele>4.46</ele>
        <time>2016-05-16T12:22:19Z</time>
      </trkpt>
      <trkpt lat="48.0458" lon="-4.7048">
        <ele>4.46</ele>
        <time>2016-05-16T12:22:20Z</time>
      </trkpt>
      <trkpt lat="48.04592" lon="-4.70479">
        <ele>4.46</ele>
        <time>2016-05-16T12:22:31Z</time>
      </trkpt>
      <trkpt lat="48.046" lon="-4.70479">
        <ele>4.46</ele>
        <time>2016-05-16T12:22:39Z</time>
      </trkpt>
      <trkpt lat="48.04602" lon="-4.70479">
        <ele>4.46</ele>
        <time>2016-05-16T12:22:40Z</time>
      </trkpt>
      <trkpt lat="48.04612" lon="-4.7048">
        <ele>4.46</ele>
        <time>2016-05-16T12:22:50Z</time>
      </trkpt>
      <trkpt lat="48.04623" lon="-4.70481">
        <ele>4.46</ele>
        <time>2016-05-16T12:23:01Z</time>
      </trkpt>
      <trkpt lat="48.04628" lon="-4.70481">
        <ele>4.46</ele>
        <time>2016-05-16T12:23:06Z</time>
      </trkpt>
      <trkpt lat="48.04632" lon="-4.70479">
        <ele>4.46</ele>
        <time>2016-05-16T12:23:19Z</time>
      </trkpt>
      <trkpt lat="48.04635" lon="-4.7048">
        <ele>4.46</ele>
        <time>2016-05-16T12:23:28Z</time>
      </trkpt>
      <trkpt lat="48.04636" lon="-4.7048">
        <ele>4.46</ele>
        <time>2016-05-16T12:23:29Z</time>
      </trkpt>
      <trkpt lat="48.04639" lon="-4.7048">
        <ele>4.46</ele>
        <time>2016-05-16T12:23:34Z</time>
      </trkpt>
      <trkpt lat="48.0464" lon="-4.7048">
        <ele>4.46</ele>
        <time>2016-05-16T12:23:35Z</time>
      </trkpt>
      <trkpt lat="48.04641" lon="-4.7048">
        <ele>4.46</ele>
        <time>2016-05-16T12:23:36Z</time>
      </trkpt>
      <trkpt lat="48.04652" lon="-4.70479">
        <ele>4.46</ele>
        <time>2016-05-16T12:23:48Z</time>
      </trkpt>
      <trkpt lat="48.04653" lon="-4.70479">
        <ele>4.46</ele>
        <time>2016-05-16T12:23:49Z</time>
      </trkpt>
      <trkpt lat="48.04655" lon="-4.70478">
        <ele>4.46</ele>
        <time>2016-05-16T12:23:50Z</time>
      </trkpt>
      <trkpt lat="48.04656" lon="-4.70478">
        <ele>4.46</ele>
        <time>2016-05-16T12:23:51Z</time>
      </trkpt>
      <trkpt lat="48.04668" lon="-4.70475">
        <ele>3.98</ele>
        <time>2016-05-16T12:24:02Z</time>
      </trkpt>
      <trkpt lat="48.04684" lon="-4.70473">
        <ele>3.98</ele>
        <time>2016-05-16T12:24:15Z</time>
      </trkpt>
      <trkpt lat="48.04689" lon="-4.70472">
        <ele>4.94</ele>
        <time>2016-05-16T12:24:19Z</time>
      </trkpt>
      <trkpt lat="48.04707" lon="-4.70468">
        <ele>5.42</ele>
        <time>2016-05-16T12:24:36Z</time>
      </trkpt>
      <trkpt lat="48.0472" lon="-4.70461">
        <ele>5.91</ele>
        <time>2016-05-16T12:24:49Z</time>
      </trkpt>
      <trkpt lat="48.04725" lon="-4.70458">
        <ele>5.91</ele>
        <time>2016-05-16T12:25:01Z</time>
      </trkpt>
      <trkpt lat="48.0473" lon="-4.7045">
        <ele>6.39</ele>
        <time>2016-05-16T12:25:12Z</time>
      </trkpt>
      <trkpt lat="48.04735" lon="-4.70434">
        <ele>6.39</ele>
        <time>2016-05-16T12:25:29Z</time>
      </trkpt>
    </trkseg>
  </trk>
</gpx>